Time,TemperatureF,DewpointF,PressureIn,WindDirection,WindDirectionDegrees,WindSpeedMPH,WindSpeedGustMPH,Humidity,HourlyPrecipIn,Conditions,Clouds,dailyrainin,SoftwareType,DateUTC
2013-01-22 00:00:00,-20.8,-23.7,30.40,West,281,0.0,0.0,86,0.00,,SCT091,0.00,VWS V14.01,2013-01-22 06:00:00,
2013-01-22 00:04:00,-20.8,-23.7,30.40,West,281,0.0,0.0,86,0.00,,FEW010,0.00,VWS V14.01,2013-01-22 06:04:00,
2013-01-22 00:05:00,-20.8,-23.7,30.40,West,281,0.0,0.0,86,0.00,,SCT091,0.00,VWS V14.01,2013-01-22 06:05:00,
2013-01-22 00:09:00,-21.0,-23.9,30.40,West,281,0.0,0.0,86,0.00,,FEW010,0.00,VWS V14.01,2013-01-22 06:09:00,
2013-01-22 00:10:00,-21.0,-23.9,30.40,West,281,0.0,0.0,86,0.00,,SCT091,0.00,VWS V14.01,2013-01-22 06:10:00,
2013-01-22 00:14:00,-21.2,-24.1,30.40,West,281,0.0,0.0,86,0.00,,FEW010,0.00,VWS V14.01,2013-01-22 06:14:00,
2013-01-22 00:15:00,-21.2,-24.1,30.40,West,281,0.0,0.0,86,0.00,,SCT091,0.00,VWS V14.01,2013-01-22 06:15:00,
2013-01-22 00:19:00,-21.3,-24.2,30.40,West,281,0.0,0.0,86,0.00,,FEW010,0.00,VWS V14.01,2013-01-22 06:19:00,
2013-01-22 00:20:00,-21.3,-24.2,30.40,West,281,0.0,0.0,86,0.00,,SCT091,0.00,VWS V14.01,2013-01-22 06:20:00,
2013-01-22 00:24:00,-21.6,-24.5,30.40,West,281,0.0,0.0,86,0.00,,FEW010,0.00,VWS V14.01,2013-01-22 06:24:00,
2013-01-22 00:25:00,-21.6,-24.5,30.40,West,281,0.0,0.0,86,0.00,,FEW250,0.00,VWS V14.01,2013-01-22 06:25:00,
2013-01-22 00:29:00,-21.8,-24.9,30.40,West,281,0.0,0.0,85,0.00,,FEW010,0.00,VWS V14.01,2013-01-22 06:29:00,
2013-01-22 00:30:00,-21.8,-24.9,30.40,West,281,0.0,0.0,85,0.00,,SCT091,0.00,VWS V14.01,2013-01-22 06:30:00,
2013-01-22 00:34:00,-22.0,-25.1,30.40,West,281,0.0,0.0,85,0.00,,FEW010,0.00,VWS V14.01,2013-01-22 06:34:00,
2013-01-22 00:35:00,-22.0,-25.1,30.40,West,281,0.0,0.0,85,0.00,,SCT091,0.00,VWS V14.01,2013-01-22 06:35:00,
2013-01-22 00:39:00,-22.3,-25.4,30.40,West,281,0.0,0.0,85,0.00,,FEW010,0.00,VWS V14.01,2013-01-22 06:39:00,
2013-01-22 00:40:00,-22.3,-25.4,30.40,West,281,0.0,0.0,85,0.00,,SCT091,0.00,VWS V14.01,2013-01-22 06:40:00,
2013-01-22 00:44:00,-22.5,-25.6,30.40,West,281,0.0,0.0,85,0.00,,SKC,0.00,VWS V14.01,2013-01-22 06:44:00,
2013-01-22 00:45:00,-22.5,-25.6,30.40,West,281,0.0,0.0,85,0.00,,SCT091,0.00,VWS V14.01,2013-01-22 06:45:00,
2013-01-22 00:49:00,-22.9,-26.0,30.40,West,281,0.0,0.0,85,0.00,,SKC,0.00,VWS V14.01,2013-01-22 06:49:00,
2013-01-22 00:50:00,-22.9,-26.0,30.40,West,281,0.0,0.0,85,0.00,,SCT091,0.00,VWS V14.01,2013-01-22 06:50:00,
2013-01-22 00:54:00,-23.0,-26.0,30.40,West,281,0.0,0.0,85,0.00,,SKC,0.00,VWS V14.01,2013-01-22 06:54:00,
2013-01-22 00:55:00,-23.0,-26.0,30.40,West,281,0.0,0.0,85,0.00,,SCT091,0.00,VWS V14.01,2013-01-22 06:55:00,
2013-01-22 00:59:00,-23.0,-25.8,30.40,West,281,0.0,0.0,86,0.00,,SKC,0.00,VWS V14.01,2013-01-22 06:59:00,
2013-01-22 01:00:00,-23.0,-25.8,30.40,West,281,0.0,0.0,86,0.00,,SCT091,0.00,VWS V14.01,2013-01-22 07:00:00,
2013-01-22 01:04:00,-23.0,-25.8,30.40,West,281,0.0,0.0,86,0.00,,SKC,0.00,VWS V14.01,2013-01-22 07:04:00,
2013-01-22 01:05:00,-23.0,-25.8,30.40,West,281,0.0,0.0,86,0.00,,SCT091,0.00,VWS V14.01,2013-01-22 07:05:00,
2013-01-22 01:09:00,-23.1,-25.9,30.40,West,281,0.0,0.0,86,0.00,,SKC,0.00,VWS V14.01,2013-01-22 07:09:00,
2013-01-22 01:10:00,-23.1,-25.9,30.40,West,281,0.0,0.0,86,0.00,,SCT091,0.00,VWS V14.01,2013-01-22 07:10:00,
2013-01-22 01:14:00,-23.2,-26.0,30.40,West,281,0.0,0.0,86,0.00,,SKC,0.00,VWS V14.01,2013-01-22 07:14:00,
2013-01-22 01:15:00,-23.2,-26.0,30.40,West,281,0.0,0.0,86,0.00,,SCT091,0.00,VWS V14.01,2013-01-22 07:15:00,
2013-01-22 01:19:00,-23.2,-26.0,30.40,West,281,0.0,0.0,86,0.00,,SKC,0.00,VWS V14.01,2013-01-22 07:19:00,
2013-01-22 01:20:00,-23.2,-26.0,30.40,West,281,0.0,0.0,86,0.00,,SCT091,0.00,VWS V14.01,2013-01-22 07:20:00,
2013-01-22 01:24:00,-23.3,-26.4,30.40,West,281,0.0,0.0,85,0.00,,SKC,0.00,VWS V14.01,2013-01-22 07:24:00,
2013-01-22 01:25:00,-23.3,-26.4,30.40,West,281,0.0,0.0,85,0.00,,SCT091,0.00,VWS V14.01,2013-01-22 07:25:00,
2013-01-22 01:29:00,-23.5,-26.5,30.40,West,281,0.0,0.0,85,0.00,,SKC,0.00,VWS V14.01,2013-01-22 07:29:00,
2013-01-22 01:30:00,-23.5,-26.5,30.40,West,281,0.0,0.0,85,0.00,,SCT091,0.00,VWS V14.01,2013-01-22 07:30:00,
2013-01-22 01:34:00,-23.6,-26.6,30.40,West,281,0.0,0.0,85,0.00,,SKC,0.00,VWS V14.01,2013-01-22 07:34:00,
2013-01-22 01:35:00,-23.6,-26.6,30.40,West,281,0.0,0.0,85,0.00,,SCT091,0.00,VWS V14.01,2013-01-22 07:35:00,
2013-01-22 01:39:00,-23.8,-26.8,30.40,West,281,0.0,0.0,85,0.00,,SKC,0.00,VWS V14.01,2013-01-22 07:39:00,
2013-01-22 01:40:00,-23.8,-26.8,30.40,West,281,0.0,0.0,85,0.00,,SCT091,0.00,VWS V14.01,2013-01-22 07:40:00,
2013-01-22 01:45:00,-23.9,-26.9,30.40,West,281,0.0,0.0,85,0.00,,SCT091,0.00,VWS V14.01,2013-01-22 07:45:00,
2013-01-22 01:49:00,-24.0,-27.0,30.40,West,281,0.0,0.0,85,0.00,,FEW080,0.00,VWS V14.01,2013-01-22 07:49:00,
2013-01-22 01:50:00,-24.0,-27.0,30.40,West,281,0.0,0.0,85,0.00,,SCT091,0.00,VWS V14.01,2013-01-22 07:50:00,
2013-01-22 01:54:00,-24.1,-27.1,30.40,West,281,0.0,0.0,85,0.00,,FEW080,0.00,VWS V14.01,2013-01-22 07:54:00,
2013-01-22 01:55:00,-24.1,-27.1,30.40,West,281,0.0,0.0,85,0.00,,SCT091,0.00,VWS V14.01,2013-01-22 07:55:00,
2013-01-22 01:59:00,-24.3,-27.3,30.40,West,281,0.0,0.0,85,0.00,,FEW080,0.00,VWS V14.01,2013-01-22 07:59:00,
2013-01-22 02:00:00,-24.3,-27.3,30.40,West,281,0.0,0.0,85,0.00,,SCT091,0.00,VWS V14.01,2013-01-22 08:00:00,
2013-01-22 02:05:00,-24.3,-27.3,30.40,West,281,0.0,0.0,85,0.00,,SCT091,0.00,VWS V14.01,2013-01-22 08:05:00,
2013-01-22 02:09:00,-24.3,-27.3,30.40,West,281,0.0,0.0,85,0.00,,FEW080,0.00,VWS V14.01,2013-01-22 08:09:00,
2013-01-22 02:10:00,-24.3,-27.3,30.40,West,281,0.0,0.0,85,0.00,,SCT091,0.00,VWS V14.01,2013-01-22 08:10:00,
2013-01-22 02:14:00,-24.4,-27.2,30.40,West,281,0.0,0.0,86,0.00,,FEW080,0.00,VWS V14.01,2013-01-22 08:14:00,
2013-01-22 02:15:00,-24.4,-27.2,30.40,West,281,0.0,0.0,86,0.00,,SCT091,0.00,VWS V14.01,2013-01-22 08:15:00,
2013-01-22 02:19:00,-24.4,-27.2,30.41,West,281,0.0,0.0,86,0.00,,FEW080,0.00,VWS V14.01,2013-01-22 08:19:00,
2013-01-22 02:20:00,-24.4,-27.2,30.41,West,281,0.0,0.0,86,0.00,,SCT091,0.00,VWS V14.01,2013-01-22 08:20:00,
2013-01-22 02:24:00,-24.5,-27.3,30.41,West,281,0.0,0.0,86,0.00,,FEW080,0.00,VWS V14.01,2013-01-22 08:24:00,
2013-01-22 02:25:00,-24.5,-27.3,30.41,West,281,0.0,0.0,86,0.00,,SCT091,0.00,VWS V14.01,2013-01-22 08:25:00,
2013-01-22 02:29:00,-24.6,-27.6,30.41,West,281,0.0,0.0,85,0.00,,FEW080,0.00,VWS V14.01,2013-01-22 08:29:00,
2013-01-22 02:30:00,-24.6,-27.6,30.41,West,281,0.0,0.0,85,0.00,,SCT091,0.00,VWS V14.01,2013-01-22 08:30:00,
2013-01-22 02:34:00,-24.6,-27.6,30.41,West,281,0.0,0.0,85,0.00,,FEW080,0.00,VWS V14.01,2013-01-22 08:34:00,
2013-01-22 02:35:00,-24.6,-27.6,30.41,West,281,0.0,0.0,85,0.00,,SCT091,0.00,VWS V14.01,2013-01-22 08:35:00,
2013-01-22 02:39:00,-24.3,-27.1,30.41,West,281,0.0,0.0,86,0.00,,FEW080,0.00,VWS V14.01,2013-01-22 08:39:00,
2013-01-22 02:40:00,-24.3,-27.1,30.41,West,281,0.0,0.0,86,0.00,,SCT091,0.00,VWS V14.01,2013-01-22 08:40:00,
2013-01-22 02:44:00,-23.8,-26.4,30.41,West,281,0.0,0.0,87,0.00,,SKC,0.00,VWS V14.01,2013-01-22 08:44:00,
2013-01-22 02:45:00,-23.8,-26.4,30.41,West,281,0.0,0.0,87,0.00,,SCT091,0.00,VWS V14.01,2013-01-22 08:45:00,
2013-01-22 02:49:00,-23.4,-26.0,30.41,West,281,0.0,0.0,87,0.00,,SKC,0.00,VWS V14.01,2013-01-22 08:49:00,
2013-01-22 02:50:00,-23.4,-26.0,30.41,West,281,0.0,0.0,87,0.00,,SCT091,0.00,VWS V14.01,2013-01-22 08:50:00,
2013-01-22 02:54:00,-23.2,-25.8,30.41,West,281,0.0,0.0,87,0.00,,SKC,0.00,VWS V14.01,2013-01-22 08:54:00,
2013-01-22 02:55:00,-23.2,-25.8,30.41,West,281,0.0,0.0,87,0.00,,SCT091,0.00,VWS V14.01,2013-01-22 08:55:00,
2013-01-22 02:59:00,-23.1,-25.7,30.41,West,281,0.0,0.0,87,0.00,,SKC,0.00,VWS V14.01,2013-01-22 08:59:00,
2013-01-22 03:00:00,-23.1,-25.7,30.41,West,281,0.0,0.0,87,0.00,,SCT091,0.00,VWS V14.01,2013-01-22 09:00:00,
2013-01-22 03:04:00,-23.2,-26.0,30.41,West,281,0.0,0.0,86,0.00,,SKC,0.00,VWS V14.01,2013-01-22 09:04:00,
2013-01-22 03:05:00,-23.2,-26.0,30.41,West,281,0.0,0.0,86,0.00,,SCT091,0.00,VWS V14.01,2013-01-22 09:05:00,
2013-01-22 03:09:00,-23.3,-26.1,30.41,West,281,0.0,0.0,86,0.00,,SKC,0.00,VWS V14.01,2013-01-22 09:09:00,
2013-01-22 03:10:00,-23.3,-26.1,30.41,West,281,0.0,0.0,86,0.00,,SCT091,0.00,VWS V14.01,2013-01-22 09:10:00,
2013-01-22 03:14:00,-23.3,-26.1,30.41,West,281,0.0,0.0,86,0.00,,SKC,0.00,VWS V14.01,2013-01-22 09:14:00,
2013-01-22 03:15:00,-23.3,-26.1,30.41,West,281,0.0,0.0,86,0.00,,SCT091,0.00,VWS V14.01,2013-01-22 09:15:00,
2013-01-22 03:19:00,-23.1,-25.9,30.41,West,281,0.0,0.0,86,0.00,,SKC,0.00,VWS V14.01,2013-01-22 09:19:00,
2013-01-22 03:20:00,-23.1,-25.9,30.41,West,281,0.0,0.0,86,0.00,,SCT091,0.00,VWS V14.01,2013-01-22 09:20:00,
2013-01-22 03:24:00,-22.9,-25.5,30.41,West,281,0.0,0.0,87,0.00,,SKC,0.00,VWS V14.01,2013-01-22 09:24:00,
2013-01-22 03:25:00,-22.9,-25.5,30.41,West,281,0.0,0.0,87,0.00,,SCT091,0.00,VWS V14.01,2013-01-22 09:25:00,
2013-01-22 03:29:00,-22.9,-25.5,30.41,West,281,0.0,0.0,87,0.00,,SKC,0.00,VWS V14.01,2013-01-22 09:29:00,
2013-01-22 03:30:00,-22.9,-25.5,30.41,West,281,0.0,0.0,87,0.00,,SCT091,0.00,VWS V14.01,2013-01-22 09:30:00,
2013-01-22 03:34:00,-22.8,-25.6,30.41,West,281,0.0,0.0,86,0.00,,SKC,0.00,VWS V14.01,2013-01-22 09:34:00,
2013-01-22 03:35:00,-22.8,-25.6,30.41,West,281,0.0,0.0,86,0.00,,SCT091,0.00,VWS V14.01,2013-01-22 09:35:00,
2013-01-22 03:39:00,-22.9,-25.7,30.41,West,281,0.0,0.0,86,0.00,,SKC,0.00,VWS V14.01,2013-01-22 09:39:00,
2013-01-22 03:40:00,-22.9,-25.7,30.41,West,281,0.0,0.0,86,0.00,,SCT091,0.00,VWS V14.01,2013-01-22 09:40:00,
2013-01-22 03:44:00,-22.8,-25.6,30.42,West,281,0.0,0.0,86,0.00,,SKC,0.00,VWS V14.01,2013-01-22 09:44:00,
2013-01-22 03:45:00,-22.8,-25.6,30.42,West,281,0.0,0.0,86,0.00,,SCT091,0.00,VWS V14.01,2013-01-22 09:45:00,
2013-01-22 03:49:00,-22.8,-25.6,30.42,West,281,0.0,0.0,86,0.00,,SKC,0.00,VWS V14.01,2013-01-22 09:49:00,
2013-01-22 03:50:00,-22.8,-25.6,30.42,West,281,0.0,0.0,86,0.00,,SCT091,0.00,VWS V14.01,2013-01-22 09:50:00,
2013-01-22 03:54:00,-22.8,-25.6,30.42,West,281,0.0,0.0,86,0.00,,SKC,0.00,VWS V14.01,2013-01-22 09:54:00,
2013-01-22 03:55:00,-22.8,-25.6,30.42,West,281,0.0,0.0,86,0.00,,SCT091,0.00,VWS V14.01,2013-01-22 09:55:00,
2013-01-22 03:59:00,-22.8,-25.6,30.42,West,281,0.0,1.0,86,0.00,,SKC,0.00,VWS V14.01,2013-01-22 09:59:00,
2013-01-22 04:00:00,-22.8,-25.6,30.42,West,281,0.0,1.0,86,0.00,,SCT091,0.00,VWS V14.01,2013-01-22 10:00:00,
2013-01-22 04:04:00,-22.9,-25.7,30.42,West,281,0.0,0.0,86,0.00,,SKC,0.00,VWS V14.01,2013-01-22 10:04:00,
2013-01-22 04:05:00,-22.9,-25.7,30.42,West,281,0.0,0.0,86,0.00,,SCT091,0.00,VWS V14.01,2013-01-22 10:05:00,
2013-01-22 04:09:00,-22.9,-25.7,30.42,West,281,0.0,0.0,86,0.00,,SKC,0.00,VWS V14.01,2013-01-22 10:09:00,
2013-01-22 04:10:00,-22.9,-25.7,30.42,West,281,0.0,0.0,86,0.00,,SCT091,0.00,VWS V14.01,2013-01-22 10:10:00,
2013-01-22 04:14:00,-22.9,-25.7,30.42,West,280,0.0,0.0,86,0.00,,SKC,0.00,VWS V14.01,2013-01-22 10:14:00,
2013-01-22 04:15:00,-22.9,-25.7,30.42,West,280,0.0,0.0,86,0.00,,SCT091,0.00,VWS V14.01,2013-01-22 10:15:00,
2013-01-22 04:19:00,-22.9,-25.7,30.42,West,280,0.0,0.0,86,0.00,,SKC,0.00,VWS V14.01,2013-01-22 10:19:00,
2013-01-22 04:20:00,-22.9,-25.7,30.42,West,280,0.0,0.0,86,0.00,,SCT091,0.00,VWS V14.01,2013-01-22 10:20:00,
2013-01-22 04:24:00,-22.9,-25.7,30.42,West,281,0.0,0.0,86,0.00,,SKC,0.00,VWS V14.01,2013-01-22 10:24:00,
2013-01-22 04:25:00,-22.9,-25.7,30.42,West,281,0.0,0.0,86,0.00,,SCT091,0.00,VWS V14.01,2013-01-22 10:25:00,
2013-01-22 04:29:00,-23.0,-25.8,30.42,West,280,0.0,0.0,86,0.00,,SKC,0.00,VWS V14.01,2013-01-22 10:29:00,
2013-01-22 04:30:00,-23.0,-25.8,30.42,West,280,0.0,0.0,86,0.00,,SCT091,0.00,VWS V14.01,2013-01-22 10:30:00,
2013-01-22 04:34:00,-23.0,-25.8,30.41,West,280,0.0,0.0,86,0.00,,SKC,0.00,VWS V14.01,2013-01-22 10:34:00,
2013-01-22 04:35:00,-23.0,-25.8,30.41,West,280,0.0,0.0,86,0.00,,SCT091,0.00,VWS V14.01,2013-01-22 10:35:00,
2013-01-22 04:39:00,-23.0,-25.8,30.41,West,280,0.0,0.0,86,0.00,,SKC,0.00,VWS V14.01,2013-01-22 10:39:00,
2013-01-22 04:40:00,-23.0,-25.8,30.41,West,280,0.0,0.0,86,0.00,,SCT091,0.00,VWS V14.01,2013-01-22 10:40:00,
2013-01-22 04:44:00,-23.0,-25.8,30.41,West,280,0.0,0.0,86,0.00,,FEW250,0.00,VWS V14.01,2013-01-22 10:44:00,
2013-01-22 04:45:00,-23.0,-25.8,30.41,West,280,0.0,0.0,86,0.00,,SCT091,0.00,VWS V14.01,2013-01-22 10:45:00,
2013-01-22 04:49:00,-23.0,-25.8,30.41,West,280,0.0,0.0,86,0.00,,FEW250,0.00,VWS V14.01,2013-01-22 10:49:00,
2013-01-22 04:50:00,-23.0,-25.8,30.41,West,280,0.0,0.0,86,0.00,,SCT091,0.00,VWS V14.01,2013-01-22 10:50:00,
2013-01-22 04:54:00,-23.0,-25.8,30.41,West,280,0.0,0.0,86,0.00,,FEW250,0.00,VWS V14.01,2013-01-22 10:54:00,
2013-01-22 04:55:00,-23.0,-25.8,30.41,West,280,0.0,0.0,86,0.00,,SCT091,0.00,VWS V14.01,2013-01-22 10:55:00,
2013-01-22 04:59:00,-22.9,-25.7,30.40,West,281,0.0,0.0,86,0.00,,FEW250,0.00,VWS V14.01,2013-01-22 10:59:00,
2013-01-22 05:00:00,-22.9,-25.7,30.40,West,281,0.0,0.0,86,0.00,,SCT091,0.00,VWS V14.01,2013-01-22 11:00:00,
2013-01-22 05:04:00,-22.9,-25.7,30.40,West,280,0.0,0.0,86,0.00,,FEW250,0.00,VWS V14.01,2013-01-22 11:04:00,
2013-01-22 05:05:00,-22.9,-25.7,30.40,West,280,0.0,0.0,86,0.00,,SCT091,0.00,VWS V14.01,2013-01-22 11:05:00,
2013-01-22 05:09:00,-22.9,-25.7,30.40,West,280,0.0,0.0,86,0.00,,FEW250,0.00,VWS V14.01,2013-01-22 11:09:00,
2013-01-22 05:10:00,-22.9,-25.7,30.40,West,280,0.0,0.0,86,0.00,,SCT091,0.00,VWS V14.01,2013-01-22 11:10:00,
2013-01-22 05:14:00,-23.0,-25.8,30.40,West,280,0.0,0.0,86,0.00,,FEW250,0.00,VWS V14.01,2013-01-22 11:14:00,
2013-01-22 05:15:00,-23.0,-25.8,30.40,West,280,0.0,0.0,86,0.00,,SCT091,0.00,VWS V14.01,2013-01-22 11:15:00,
2013-01-22 05:19:00,-23.1,-26.1,30.40,West,280,0.0,0.0,85,0.00,,FEW250,0.00,VWS V14.01,2013-01-22 11:19:00,
2013-01-22 05:20:00,-23.1,-26.1,30.40,West,280,0.0,0.0,85,0.00,,SCT091,0.00,VWS V14.01,2013-01-22 11:20:00,
2013-01-22 05:24:00,-23.2,-26.2,30.40,West,280,0.0,0.0,85,0.00,,FEW250,0.00,VWS V14.01,2013-01-22 11:24:00,
2013-01-22 05:25:00,-23.2,-26.2,30.40,West,280,0.0,0.0,85,0.00,,SCT091,0.00,VWS V14.01,2013-01-22 11:25:00,
2013-01-22 05:29:00,-23.3,-26.4,30.39,West,280,0.0,0.0,85,0.00,,FEW250,0.00,VWS V14.01,2013-01-22 11:29:00,
2013-01-22 05:30:00,-23.3,-26.4,30.39,West,280,0.0,0.0,85,0.00,,SCT091,0.00,VWS V14.01,2013-01-22 11:30:00,
2013-01-22 05:34:00,-23.3,-26.4,30.39,West,280,0.0,0.0,85,0.00,,FEW250,0.00,VWS V14.01,2013-01-22 11:34:00,
2013-01-22 05:35:00,-23.3,-26.4,30.39,West,280,0.0,0.0,85,0.00,,SCT091,0.00,VWS V14.01,2013-01-22 11:35:00,
2013-01-22 05:39:00,-23.4,-26.4,30.39,West,280,0.0,0.0,85,0.00,,FEW250,0.00,VWS V14.01,2013-01-22 11:39:00,
2013-01-22 05:40:00,-23.4,-26.4,30.39,West,280,0.0,0.0,85,0.00,,SCT091,0.00,VWS V14.01,2013-01-22 11:40:00,
2013-01-22 05:44:00,-23.4,-26.4,30.39,West,280,0.0,0.0,85,0.00,,FEW250,0.00,VWS V14.01,2013-01-22 11:44:00,
2013-01-22 05:45:00,-23.4,-26.4,30.39,West,280,0.0,0.0,85,0.00,,SCT091,0.00,VWS V14.01,2013-01-22 11:45:00,
2013-01-22 05:49:00,-23.5,-26.5,30.38,West,280,0.0,0.0,85,0.00,,FEW250,0.00,VWS V14.01,2013-01-22 11:49:00,
2013-01-22 05:50:00,-23.5,-26.5,30.38,West,280,0.0,0.0,85,0.00,,SCT091,0.00,VWS V14.01,2013-01-22 11:50:00,
2013-01-22 05:54:00,-23.7,-26.7,30.39,West,280,0.0,0.0,85,0.00,,FEW250,0.00,VWS V14.01,2013-01-22 11:54:00,
2013-01-22 05:55:00,-23.7,-26.7,30.39,West,280,0.0,0.0,85,0.00,,SCT091,0.00,VWS V14.01,2013-01-22 11:55:00,
2013-01-22 05:59:00,-23.8,-26.8,30.39,West,280,0.0,0.0,85,0.00,,FEW250,0.00,VWS V14.01,2013-01-22 11:59:00,
2013-01-22 06:00:00,-23.8,-26.8,30.39,West,280,0.0,0.0,85,0.00,,SCT091,0.00,VWS V14.01,2013-01-22 12:00:00,
2013-01-22 06:04:00,-23.9,-26.9,30.39,West,280,0.0,0.0,85,0.00,,FEW250,0.00,VWS V14.01,2013-01-22 12:04:00,
2013-01-22 06:05:00,-23.9,-26.9,30.39,West,280,0.0,0.0,85,0.00,,SCT091,0.00,VWS V14.01,2013-01-22 12:05:00,
2013-01-22 06:10:00,-24.0,-27.0,30.39,West,281,0.0,0.0,85,0.00,,SCT091,0.00,VWS V14.01,2013-01-22 12:10:00,
2013-01-22 06:14:00,-24.2,-27.2,30.39,West,280,0.0,0.0,85,0.00,,FEW250,0.00,VWS V14.01,2013-01-22 12:14:00,
2013-01-22 06:15:00,-24.2,-27.2,30.39,West,280,0.0,0.0,85,0.00,,SCT091,0.00,VWS V14.01,2013-01-22 12:15:00,
2013-01-22 06:19:00,-24.3,-27.3,30.39,West,281,0.0,0.0,85,0.00,,FEW250,0.00,VWS V14.01,2013-01-22 12:19:00,
2013-01-22 06:20:00,-24.3,-27.3,30.39,West,281,0.0,0.0,85,0.00,,SCT091,0.00,VWS V14.01,2013-01-22 12:20:00,
2013-01-22 06:24:00,-24.3,-27.3,30.40,West,281,0.0,0.0,85,0.00,,FEW250,0.00,VWS V14.01,2013-01-22 12:24:00,
2013-01-22 06:25:00,-24.3,-27.3,30.40,West,281,0.0,0.0,85,0.00,,SCT091,0.00,VWS V14.01,2013-01-22 12:25:00,
2013-01-22 06:29:00,-24.4,-27.4,30.40,West,281,0.0,0.0,85,0.00,,FEW250,0.00,VWS V14.01,2013-01-22 12:29:00,
2013-01-22 06:30:00,-24.4,-27.4,30.40,West,281,0.0,0.0,85,0.00,,SCT091,0.00,VWS V14.01,2013-01-22 12:30:00,
2013-01-22 06:34:00,-24.5,-27.5,30.40,West,281,0.0,0.0,85,0.00,,FEW250,0.00,VWS V14.01,2013-01-22 12:34:00,
2013-01-22 06:35:00,-24.5,-27.5,30.40,West,281,0.0,0.0,85,0.00,,SCT091,0.00,VWS V14.01,2013-01-22 12:35:00,
2013-01-22 06:39:00,-24.6,-27.6,30.40,West,280,0.0,0.0,85,0.00,,FEW250,0.00,VWS V14.01,2013-01-22 12:39:00,
2013-01-22 06:40:00,-24.6,-27.6,30.40,West,280,0.0,0.0,85,0.00,,SCT091,0.00,VWS V14.01,2013-01-22 12:40:00,
2013-01-22 06:44:00,-24.7,-27.7,30.40,West,280,0.0,0.0,85,0.00,,FEW250,0.00,VWS V14.01,2013-01-22 12:44:00,
2013-01-22 06:45:00,-24.7,-27.7,30.40,West,280,0.0,0.0,85,0.00,,SCT091,0.00,VWS V14.01,2013-01-22 12:45:00,
2013-01-22 06:49:00,-24.7,-27.7,30.40,West,280,0.0,0.0,85,0.00,,FEW250,0.00,VWS V14.01,2013-01-22 12:49:00,
2013-01-22 06:50:00,-24.7,-27.7,30.40,West,280,0.0,0.0,85,0.00,,SCT091,0.00,VWS V14.01,2013-01-22 12:50:00,
2013-01-22 06:54:00,-24.8,-27.8,30.40,West,280,0.0,0.0,85,0.00,,FEW250,0.00,VWS V14.01,2013-01-22 12:54:00,
2013-01-22 06:55:00,-24.8,-27.8,30.40,West,280,0.0,0.0,85,0.00,,SCT091,0.00,VWS V14.01,2013-01-22 12:55:00,
2013-01-22 06:59:00,-24.9,-27.9,30.40,West,280,0.0,0.0,85,0.00,,FEW250,0.00,VWS V14.01,2013-01-22 12:59:00,
2013-01-22 07:00:00,-24.9,-27.9,30.40,West,280,0.0,0.0,85,0.00,,SCT091,0.00,VWS V14.01,2013-01-22 13:00:00,
2013-01-22 07:04:00,-25.0,-28.0,30.40,West,280,0.0,0.0,85,0.00,,FEW250,0.00,VWS V14.01,2013-01-22 13:04:00,
2013-01-22 07:05:00,-25.0,-28.0,30.40,West,280,0.0,0.0,85,0.00,,SCT091,0.00,VWS V14.01,2013-01-22 13:05:00,
2013-01-22 07:09:00,-25.0,-28.0,30.40,West,281,0.0,0.0,85,0.00,,FEW250,0.00,VWS V14.01,2013-01-22 13:09:00,
2013-01-22 07:10:00,-25.0,-28.0,30.40,West,281,0.0,0.0,85,0.00,,SCT091,0.00,VWS V14.01,2013-01-22 13:10:00,
2013-01-22 07:14:00,-25.1,-28.1,30.39,West,280,0.0,0.0,85,0.00,,FEW250,0.00,VWS V14.01,2013-01-22 13:14:00,
2013-01-22 07:15:00,-25.1,-28.1,30.39,West,280,0.0,0.0,85,0.00,,SCT091,0.00,VWS V14.01,2013-01-22 13:15:00,
2013-01-22 07:19:00,-25.0,-28.0,30.39,West,281,0.0,0.0,85,0.00,,FEW250,0.00,VWS V14.01,2013-01-22 13:19:00,
2013-01-22 07:20:00,-25.0,-28.0,30.39,West,281,0.0,0.0,85,0.00,,SCT091,0.00,VWS V14.01,2013-01-22 13:20:00,
2013-01-22 07:24:00,-25.0,-28.0,30.39,West,280,0.0,0.0,85,0.00,,FEW250,0.00,VWS V14.01,2013-01-22 13:24:00,
2013-01-22 07:25:00,-25.0,-28.0,30.39,West,280,0.0,0.0,85,0.00,,SCT091,0.00,VWS V14.01,2013-01-22 13:25:00,
2013-01-22 07:29:00,-24.9,-27.9,30.38,West,280,0.0,0.0,85,0.00,,FEW250,0.00,VWS V14.01,2013-01-22 13:29:00,
2013-01-22 07:30:00,-24.9,-27.9,30.38,West,280,0.0,0.0,85,0.00,,SCT091,0.00,VWS V14.01,2013-01-22 13:30:00,
2013-01-22 07:34:00,-24.9,-27.9,30.38,West,281,0.0,0.0,85,0.00,,FEW250,0.00,VWS V14.01,2013-01-22 13:34:00,
2013-01-22 07:35:00,-24.9,-27.9,30.38,West,281,0.0,0.0,85,0.00,,SCT091,0.00,VWS V14.01,2013-01-22 13:35:00,
2013-01-22 07:39:00,-24.7,-27.5,30.38,West,280,0.0,0.0,86,0.00,,FEW250,0.00,VWS V14.01,2013-01-22 13:39:00,
2013-01-22 07:40:00,-24.7,-27.5,30.38,West,280,0.0,0.0,86,0.00,,SCT091,0.00,VWS V14.01,2013-01-22 13:40:00,
2013-01-22 07:44:00,-24.6,-27.4,30.38,West,281,0.0,0.0,86,0.00,,FEW250,0.00,VWS V14.01,2013-01-22 13:44:00,
2013-01-22 07:45:00,-24.6,-27.4,30.38,West,281,0.0,0.0,86,0.00,,SCT091,0.00,VWS V14.01,2013-01-22 13:45:00,
2013-01-22 07:49:00,-24.6,-27.4,30.37,West,280,0.0,0.0,86,0.00,,FEW250,0.00,VWS V14.01,2013-01-22 13:49:00,
2013-01-22 07:50:00,-24.6,-27.4,30.37,West,280,0.0,0.0,86,0.00,,SCT091,0.00,VWS V14.01,2013-01-22 13:50:00,
2013-01-22 07:54:00,-24.4,-27.2,30.38,West,280,0.0,0.0,86,0.00,,FEW250,0.00,VWS V14.01,2013-01-22 13:54:00,
2013-01-22 07:55:00,-24.4,-27.2,30.38,West,280,0.0,0.0,86,0.00,,SCT091,0.00,VWS V14.01,2013-01-22 13:55:00,
2013-01-22 07:59:00,-24.3,-27.1,30.38,West,280,0.0,0.0,86,0.00,,FEW250,0.00,VWS V14.01,2013-01-22 13:59:00,
2013-01-22 08:00:00,-24.3,-27.1,30.38,West,280,0.0,0.0,86,0.00,,SCT091,0.00,VWS V14.01,2013-01-22 14:00:00,
2013-01-22 08:04:00,-24.1,-26.9,30.37,West,280,0.0,0.0,86,0.00,,FEW250,0.00,VWS V14.01,2013-01-22 14:04:00,
2013-01-22 08:05:00,-24.1,-26.9,30.37,West,280,0.0,0.0,86,0.00,,SCT091,0.00,VWS V14.01,2013-01-22 14:05:00,
2013-01-22 08:09:00,-24.0,-26.8,30.37,West,281,0.0,0.0,86,0.00,,FEW250,0.00,VWS V14.01,2013-01-22 14:09:00,
2013-01-22 08:10:00,-24.0,-26.8,30.37,West,281,0.0,0.0,86,0.00,,SCT091,0.00,VWS V14.01,2013-01-22 14:10:00,
2013-01-22 08:14:00,-23.9,-26.7,30.38,West,280,0.0,0.0,86,0.00,,FEW250,0.00,VWS V14.01,2013-01-22 14:14:00,
2013-01-22 08:15:00,-23.9,-26.7,30.38,West,280,0.0,0.0,86,0.00,,FEW250,0.00,VWS V14.01,2013-01-22 14:15:00,
2013-01-22 08:19:00,-23.8,-26.6,30.38,West,280,0.0,0.0,86,0.00,,FEW250,0.00,VWS V14.01,2013-01-22 14:19:00,
2013-01-22 08:20:00,-23.8,-26.6,30.38,West,280,0.0,0.0,86,0.00,,SCT091,0.00,VWS V14.01,2013-01-22 14:20:00,
2013-01-22 08:24:00,-23.7,-26.5,30.38,West,281,0.0,0.0,86,0.00,,FEW250,0.00,VWS V14.01,2013-01-22 14:24:00,
2013-01-22 08:25:00,-23.7,-26.5,30.38,West,281,0.0,0.0,86,0.00,,SCT091,0.00,VWS V14.01,2013-01-22 14:25:00,
2013-01-22 08:29:00,-23.5,-26.3,30.38,West,280,0.0,0.0,86,0.00,,FEW250,0.00,VWS V14.01,2013-01-22 14:29:00,
2013-01-22 08:30:00,-23.5,-26.3,30.38,West,280,0.0,0.0,86,0.00,,SCT091,0.00,VWS V14.01,2013-01-22 14:30:00,
2013-01-22 08:34:00,-23.3,-26.1,30.38,West,280,0.0,0.0,86,0.00,,FEW250,0.00,VWS V14.01,2013-01-22 14:34:00,
2013-01-22 08:35:00,-23.3,-26.1,30.38,West,280,0.0,0.0,86,0.00,,SCT091,0.00,VWS V14.01,2013-01-22 14:35:00,
2013-01-22 08:39:00,-23.1,-25.9,30.38,West,280,0.0,0.0,86,0.00,,FEW250,0.00,VWS V14.01,2013-01-22 14:39:00,
2013-01-22 08:40:00,-23.1,-25.9,30.38,West,280,0.0,0.0,86,0.00,,SCT091,0.00,VWS V14.01,2013-01-22 14:40:00,
2013-01-22 08:44:00,-23.0,-25.8,30.38,West,280,0.0,0.0,86,0.00,,SCT250,0.00,VWS V14.01,2013-01-22 14:44:00,
2013-01-22 08:45:00,-23.0,-25.8,30.38,West,280,0.0,0.0,86,0.00,,SCT091,0.00,VWS V14.01,2013-01-22 14:45:00,
2013-01-22 08:49:00,-22.8,-25.6,30.38,West,280,0.0,0.0,86,0.00,,SCT250,0.00,VWS V14.01,2013-01-22 14:49:00,
2013-01-22 08:50:00,-22.8,-25.6,30.38,West,280,0.0,0.0,86,0.00,,SCT091,0.00,VWS V14.01,2013-01-22 14:50:00,
2013-01-22 08:54:00,-22.6,-25.4,30.38,West,275,0.0,1.0,86,0.00,,SCT250,0.00,VWS V14.01,2013-01-22 14:54:00,
2013-01-22 08:55:00,-22.6,-25.4,30.38,West,275,0.0,1.0,86,0.00,,SCT091,0.00,VWS V14.01,2013-01-22 14:55:00,
2013-01-22 08:59:00,-22.5,-25.3,30.38,West,274,0.0,0.0,86,0.00,,SCT250,0.00,VWS V14.01,2013-01-22 14:59:00,
2013-01-22 09:00:00,-22.5,-25.3,30.38,West,274,0.0,0.0,86,0.00,,SCT091,0.00,VWS V14.01,2013-01-22 15:00:00,
2013-01-22 09:04:00,-22.5,-25.3,30.37,West,273,0.0,0.0,86,0.00,,SCT250,0.00,VWS V14.01,2013-01-22 15:04:00,
2013-01-22 09:05:00,-22.5,-25.3,30.37,West,273,0.0,0.0,86,0.00,,SCT091,0.00,VWS V14.01,2013-01-22 15:05:00,
2013-01-22 09:09:00,-22.3,-25.1,30.37,West,273,0.0,0.0,86,0.00,,SCT250,0.00,VWS V14.01,2013-01-22 15:09:00,
2013-01-22 09:10:00,-22.3,-25.1,30.37,West,273,0.0,0.0,86,0.00,,SCT091,0.00,VWS V14.01,2013-01-22 15:10:00,
2013-01-22 09:14:00,-22.0,-24.9,30.37,West,271,0.0,0.0,86,0.00,,SCT250,0.00,VWS V14.01,2013-01-22 15:14:00,
2013-01-22 09:15:00,-22.0,-24.9,30.37,West,271,0.0,0.0,86,0.00,,SCT091,0.00,VWS V14.01,2013-01-22 15:15:00,
2013-01-22 09:20:00,-21.6,-24.2,30.36,West,271,0.0,0.0,87,0.00,,SCT091,0.00,VWS V14.01,2013-01-22 15:20:00,
2013-01-22 09:24:00,-21.5,-24.1,30.36,West,271,0.0,0.0,87,0.00,,SCT250,0.00,VWS V14.01,2013-01-22 15:24:00,
2013-01-22 09:25:00,-21.5,-24.1,30.36,West,271,0.0,0.0,87,0.00,,SCT091,0.00,VWS V14.01,2013-01-22 15:25:00,
2013-01-22 09:29:00,-21.5,-24.4,30.36,West,270,1.0,1.0,86,0.00,,SCT250,0.00,VWS V14.01,2013-01-22 15:29:00,
2013-01-22 09:30:00,-21.5,-24.4,30.36,West,270,1.0,1.0,86,0.00,,SCT091,0.00,VWS V14.01,2013-01-22 15:30:00,
2013-01-22 09:34:00,-21.4,-24.3,30.37,West,270,0.0,0.0,86,0.00,,SCT250,0.00,VWS V14.01,2013-01-22 15:34:00,
2013-01-22 09:35:00,-21.4,-24.3,30.37,West,270,0.0,0.0,86,0.00,,SCT091,0.00,VWS V14.01,2013-01-22 15:35:00,
2013-01-22 09:39:00,-21.2,-24.1,30.37,West,270,0.0,0.0,86,0.00,,SCT250,0.00,VWS V14.01,2013-01-22 15:39:00,
2013-01-22 09:40:00,-21.2,-24.1,30.37,West,270,0.0,0.0,86,0.00,,SCT091,0.00,VWS V14.01,2013-01-22 15:40:00,
2013-01-22 09:44:00,-21.0,-23.9,30.37,West,269,0.0,0.0,86,0.00,,BKN250,0.00,VWS V14.01,2013-01-22 15:44:00,
2013-01-22 09:45:00,-21.0,-23.9,30.37,West,269,0.0,0.0,86,0.00,,SCT091,0.00,VWS V14.01,2013-01-22 15:45:00,
2013-01-22 09:49:00,-20.8,-23.7,30.37,West,269,0.0,0.0,86,0.00,,BKN250,0.00,VWS V14.01,2013-01-22 15:49:00,
2013-01-22 09:50:00,-20.8,-23.7,30.37,West,269,0.0,0.0,86,0.00,,SCT091,0.00,VWS V14.01,2013-01-22 15:50:00,
2013-01-22 09:54:00,-20.5,-23.4,30.37,West,262,0.0,1.0,86,0.00,,BKN250,0.00,VWS V14.01,2013-01-22 15:54:00,
2013-01-22 09:55:00,-20.5,-23.4,30.37,West,262,0.0,1.0,86,0.00,,SCT091,0.00,VWS V14.01,2013-01-22 15:55:00,
2013-01-22 09:59:00,-20.2,-22.9,30.37,West,262,0.0,0.0,87,0.00,,BKN250,0.00,VWS V14.01,2013-01-22 15:59:00,
2013-01-22 10:00:00,-20.2,-22.9,30.37,West,262,0.0,0.0,87,0.00,,SCT091,0.00,VWS V14.01,2013-01-22 16:00:00,
2013-01-22 10:04:00,-19.9,-22.6,30.37,WSW,252,1.0,1.0,87,0.00,,BKN250,0.00,VWS V14.01,2013-01-22 16:04:00,
2013-01-22 10:05:00,-19.9,-22.6,30.37,WSW,252,1.0,1.0,87,0.00,,SCT091,0.00,VWS V14.01,2013-01-22 16:05:00,
2013-01-22 10:09:00,-19.7,-22.4,30.37,SSW,209,0.0,1.0,87,0.00,,BKN250,0.00,VWS V14.01,2013-01-22 16:09:00,
2013-01-22 10:10:00,-19.7,-22.4,30.38,SSW,209,0.0,1.0,87,0.00,,SCT091,0.00,VWS V14.01,2013-01-22 16:10:00,
2013-01-22 10:14:00,-19.4,-22.1,30.37,SSW,205,1.0,1.0,87,0.00,,BKN250,0.00,VWS V14.01,2013-01-22 16:14:00,
2013-01-22 10:15:00,-19.4,-22.1,30.37,SSW,205,1.0,1.0,87,0.00,,SCT091,0.00,VWS V14.01,2013-01-22 16:15:00,
2013-01-22 10:19:00,-19.2,-21.9,30.38,SSW,204,0.0,0.0,87,0.00,,BKN250,0.00,VWS V14.01,2013-01-22 16:19:00,
2013-01-22 10:20:00,-19.2,-21.9,30.38,SSW,204,0.0,0.0,87,0.00,,FEW250,0.00,VWS V14.01,2013-01-22 16:20:00,
2013-01-22 10:24:00,-18.9,-21.6,30.37,SSW,194,0.0,0.0,87,0.00,,BKN250,0.00,VWS V14.01,2013-01-22 16:24:00,
2013-01-22 10:25:00,-18.9,-21.6,30.38,SSW,194,0.0,0.0,87,0.00,,SCT091,0.00,VWS V14.01,2013-01-22 16:25:00,
2013-01-22 10:29:00,-18.7,-21.4,30.37,South,186,0.0,0.0,87,0.00,,BKN250,0.00,VWS V14.01,2013-01-22 16:29:00,
2013-01-22 10:30:00,-18.7,-21.4,30.37,South,186,0.0,0.0,87,0.00,,SCT091,0.00,VWS V14.01,2013-01-22 16:30:00,
2013-01-22 10:34:00,-18.5,-21.4,30.37,South,184,0.0,2.0,86,0.00,,BKN250,0.00,VWS V14.01,2013-01-22 16:34:00,
2013-01-22 10:35:00,-18.5,-21.4,30.37,South,184,0.0,2.0,86,0.00,,SCT091,0.00,VWS V14.01,2013-01-22 16:35:00,
2013-01-22 10:39:00,-18.3,-21.2,30.37,South,178,0.0,0.0,86,0.00,,BKN250,0.00,VWS V14.01,2013-01-22 16:39:00,
2013-01-22 10:40:00,-18.3,-21.2,30.37,South,178,0.0,0.0,86,0.00,,SCT091,0.00,VWS V14.01,2013-01-22 16:40:00,
2013-01-22 10:44:00,-18.0,-20.7,30.37,South,177,0.0,2.0,87,0.00,,SCT250,0.00,VWS V14.01,2013-01-22 16:44:00,
2013-01-22 10:45:00,-18.0,-20.7,30.37,South,177,0.0,2.0,87,0.00,,SCT091,0.00,VWS V14.01,2013-01-22 16:45:00,
2013-01-22 10:50:00,-18.0,-20.9,30.37,South,178,2.0,2.0,86,0.00,,SCT091,0.00,VWS V14.01,2013-01-22 16:50:00,
2013-01-22 10:54:00,-17.9,-20.8,30.37,South,171,4.0,4.0,86,0.00,,SCT250,0.00,VWS V14.01,2013-01-22 16:54:00,
2013-01-22 10:55:00,-17.9,-20.8,30.37,South,171,4.0,4.0,86,0.00,,SCT091,0.00,VWS V14.01,2013-01-22 16:55:00,
2013-01-22 10:59:00,-17.9,-20.8,30.37,South,172,0.0,1.0,86,0.00,,SCT250,0.00,VWS V14.01,2013-01-22 16:59:00,
2013-01-22 11:00:00,-17.9,-20.8,30.37,South,172,0.0,1.0,86,0.00,,SCT091,0.00,VWS V14.01,2013-01-22 17:00:00,
2013-01-22 11:04:00,-17.4,-20.3,30.36,South,181,2.0,3.0,86,0.00,,SCT250,0.00,VWS V14.01,2013-01-22 17:04:00,
2013-01-22 11:05:00,-17.4,-20.3,30.36,South,181,2.0,3.0,86,0.00,,SCT091,0.00,VWS V14.01,2013-01-22 17:05:00,
2013-01-22 11:09:00,-17.2,-20.1,30.37,South,181,0.0,1.0,86,0.00,,SCT250,0.00,VWS V14.01,2013-01-22 17:09:00,
2013-01-22 11:10:00,-17.2,-20.1,30.37,South,181,0.0,1.0,86,0.00,,SCT091,0.00,VWS V14.01,2013-01-22 17:10:00,
2013-01-22 11:14:00,-16.7,-19.4,30.36,South,180,0.0,0.0,87,0.00,,SCT250,0.00,VWS V14.01,2013-01-22 17:14:00,
2013-01-22 11:15:00,-16.7,-19.4,30.36,South,180,0.0,0.0,87,0.00,,SCT091,0.00,VWS V14.01,2013-01-22 17:15:00,
2013-01-22 11:19:00,-16.2,-18.9,30.37,South,175,0.0,0.0,87,0.00,,SCT250,0.00,VWS V14.01,2013-01-22 17:19:00,
2013-01-22 11:20:00,-16.2,-18.9,30.36,South,175,0.0,0.0,87,0.00,,SCT091,0.00,VWS V14.01,2013-01-22 17:20:00,
2013-01-22 11:24:00,-15.7,-18.4,30.36,South,176,0.0,0.0,87,0.00,,SCT250,0.00,VWS V14.01,2013-01-22 17:24:00,
2013-01-22 11:25:00,-15.7,-18.4,30.36,South,176,0.0,0.0,87,0.00,,SCT091,0.00,VWS V14.01,2013-01-22 17:25:00,
2013-01-22 11:29:00,-15.1,-17.8,30.36,South,175,0.0,2.0,87,0.00,,SCT250,0.00,VWS V14.01,2013-01-22 17:29:00,
2013-01-22 11:30:00,-15.1,-17.8,30.36,South,175,0.0,2.0,87,0.00,,SCT091,0.00,VWS V14.01,2013-01-22 17:30:00,
2013-01-22 11:34:00,-14.8,-17.5,30.37,South,174,0.0,0.0,87,0.00,,SCT250,0.00,VWS V14.01,2013-01-22 17:34:00,
2013-01-22 11:35:00,-14.8,-17.5,30.37,South,174,0.0,0.0,87,0.00,,SCT091,0.00,VWS V14.01,2013-01-22 17:35:00,
2013-01-22 11:39:00,-14.4,-17.1,30.37,South,172,1.0,4.0,87,0.00,,SCT250,0.00,VWS V14.01,2013-01-22 17:39:00,
2013-01-22 11:40:00,-14.4,-17.1,30.37,South,172,1.0,4.0,87,0.00,,SCT091,0.00,VWS V14.01,2013-01-22 17:40:00,
2013-01-22 11:44:00,-14.3,-17.3,30.37,South,173,0.0,0.0,86,0.00,,BKN240,0.00,VWS V14.01,2013-01-22 17:44:00,
2013-01-22 11:45:00,-14.3,-17.3,30.37,South,173,0.0,0.0,86,0.00,,SCT091,0.00,VWS V14.01,2013-01-22 17:45:00,
2013-01-22 11:49:00,-14.1,-17.1,30.36,South,174,0.0,1.0,86,0.00,,BKN240,0.00,VWS V14.01,2013-01-22 17:49:00,
2013-01-22 11:50:00,-14.1,-17.1,30.36,South,174,0.0,1.0,86,0.00,,SCT091,0.00,VWS V14.01,2013-01-22 17:50:00,
2013-01-22 11:54:00,-13.9,-16.9,30.36,South,175,2.0,2.0,86,0.00,,BKN240,0.00,VWS V14.01,2013-01-22 17:54:00,
2013-01-22 11:55:00,-13.9,-16.9,30.36,South,175,2.0,2.0,86,0.00,,SCT091,0.00,VWS V14.01,2013-01-22 17:55:00,
2013-01-22 11:59:00,-13.8,-17.0,30.36,South,175,0.0,4.0,85,0.00,,BKN240,0.00,VWS V14.01,2013-01-22 17:59:00,
2013-01-22 12:00:00,-13.8,-17.0,30.36,South,175,0.0,4.0,85,0.00,,SCT091,0.00,VWS V14.01,2013-01-22 18:00:00,
2013-01-22 12:04:00,-13.9,-17.1,30.35,South,176,0.0,0.0,85,0.00,,BKN240,0.00,VWS V14.01,2013-01-22 18:04:00,
2013-01-22 12:05:00,-13.9,-17.1,30.35,South,176,0.0,0.0,85,0.00,,SCT091,0.00,VWS V14.01,2013-01-22 18:05:00,
2013-01-22 12:09:00,-13.7,-17.1,30.35,South,178,1.0,2.0,84,0.00,,BKN240,0.00,VWS V14.01,2013-01-22 18:09:00,
2013-01-22 12:10:00,-13.7,-17.1,30.35,South,178,1.0,2.0,84,0.00,,SCT091,0.00,VWS V14.01,2013-01-22 18:10:00,
2013-01-22 12:14:00,-13.2,-16.4,30.35,South,175,2.0,2.0,85,0.00,,BKN240,0.00,VWS V14.01,2013-01-22 18:14:00,
2013-01-22 12:15:00,-13.2,-16.4,30.35,South,175,2.0,2.0,85,0.00,,SCT091,0.00,VWS V14.01,2013-01-22 18:15:00,
2013-01-22 12:19:00,-12.5,-15.7,30.34,South,176,0.0,1.0,85,0.00,,BKN240,0.00,VWS V14.01,2013-01-22 18:19:00,
2013-01-22 12:20:00,-12.5,-15.7,30.34,South,176,0.0,1.0,85,0.00,,SCT091,0.00,VWS V14.01,2013-01-22 18:20:00,
2013-01-22 12:24:00,-12.0,-15.2,30.34,South,177,0.0,1.0,85,0.00,,BKN240,0.00,VWS V14.01,2013-01-22 18:24:00,
2013-01-22 12:25:00,-12.0,-15.2,30.34,South,177,0.0,1.0,85,0.00,,SCT091,0.00,VWS V14.01,2013-01-22 18:25:00,
2013-01-22 12:29:00,-11.6,-15.1,30.34,South,178,0.0,0.0,84,0.00,,BKN240,0.00,VWS V14.01,2013-01-22 18:29:00,
2013-01-22 12:30:00,-11.6,-15.1,30.34,South,178,0.0,0.0,84,0.00,,SCT091,0.00,VWS V14.01,2013-01-22 18:30:00,
2013-01-22 12:34:00,-11.6,-15.3,30.33,South,178,1.0,4.0,83,0.00,,BKN240,0.00,VWS V14.01,2013-01-22 18:34:00,
2013-01-22 12:35:00,-11.6,-15.3,30.33,South,178,1.0,4.0,83,0.00,,SCT091,0.00,VWS V14.01,2013-01-22 18:35:00,
2013-01-22 12:39:00,-11.5,-15.2,30.33,South,179,0.0,0.0,83,0.00,,BKN240,0.00,VWS V14.01,2013-01-22 18:39:00,
2013-01-22 12:40:00,-11.5,-15.2,30.33,South,179,0.0,0.0,83,0.00,,SCT091,0.00,VWS V14.01,2013-01-22 18:40:00,
2013-01-22 12:44:00,-11.0,-14.7,30.33,South,176,0.0,1.0,83,0.00,,BKN240,0.00,VWS V14.01,2013-01-22 18:44:00,
2013-01-22 12:45:00,-11.0,-14.7,30.33,South,176,0.0,1.0,83,0.00,,SCT091,0.00,VWS V14.01,2013-01-22 18:45:00,
2013-01-22 12:50:00,-10.6,-14.3,30.33,South,174,1.0,4.0,83,0.00,,SCT091,0.00,VWS V14.01,2013-01-22 18:50:00,
2013-01-22 12:54:00,-10.2,-13.9,30.33,South,174,0.0,1.0,83,0.00,,BKN240,0.00,VWS V14.01,2013-01-22 18:54:00,
2013-01-22 12:55:00,-10.2,-13.9,30.33,South,174,0.0,1.0,83,0.00,,SCT091,0.00,VWS V14.01,2013-01-22 18:55:00,
2013-01-22 12:59:00,-9.7,-13.4,30.33,South,175,0.0,1.0,83,0.00,,BKN240,0.00,VWS V14.01,2013-01-22 18:59:00,
2013-01-22 13:00:00,-9.7,-13.4,30.33,South,175,0.0,1.0,83,0.00,,SCT091,0.00,VWS V14.01,2013-01-22 19:00:00,
2013-01-22 13:04:00,-9.5,-13.5,30.33,South,175,0.0,0.0,82,0.00,,BKN240,0.00,VWS V14.01,2013-01-22 19:04:00,
2013-01-22 13:05:00,-9.5,-13.5,30.33,South,175,0.0,0.0,82,0.00,,SCT091,0.00,VWS V14.01,2013-01-22 19:05:00,
2013-01-22 13:09:00,-9.2,-13.2,30.33,South,175,2.0,2.0,82,0.00,,BKN240,0.00,VWS V14.01,2013-01-22 19:09:00,
2013-01-22 13:10:00,-9.2,-13.2,30.33,South,175,2.0,2.0,82,0.00,,SCT091,0.00,VWS V14.01,2013-01-22 19:10:00,
2013-01-22 13:14:00,-9.1,-13.3,30.33,South,176,0.0,0.0,81,0.00,,BKN240,0.00,VWS V14.01,2013-01-22 19:14:00,
2013-01-22 13:15:00,-9.1,-13.3,30.33,South,176,0.0,0.0,81,0.00,,SCT091,0.00,VWS V14.01,2013-01-22 19:15:00,
2013-01-22 13:19:00,-9.1,-13.3,30.32,South,177,0.0,1.0,81,0.00,,BKN240,0.00,VWS V14.01,2013-01-22 19:19:00,
2013-01-22 13:20:00,-9.1,-13.3,30.32,South,177,0.0,1.0,81,0.00,,SCT091,0.00,VWS V14.01,2013-01-22 19:20:00,
2013-01-22 13:24:00,-9.0,-13.0,30.32,South,178,4.0,4.0,82,0.00,,BKN240,0.00,VWS V14.01,2013-01-22 19:24:00,
2013-01-22 13:25:00,-9.0,-13.0,30.32,South,178,4.0,4.0,82,0.00,,SCT091,0.00,VWS V14.01,2013-01-22 19:25:00,
2013-01-22 13:30:00,-8.8,-13.0,30.32,South,178,0.0,0.0,81,0.00,,SCT091,0.00,VWS V14.01,2013-01-22 19:30:00,
2013-01-22 13:34:00,-8.7,-12.9,30.32,South,173,1.0,2.0,81,0.00,,BKN240,0.00,VWS V14.01,2013-01-22 19:34:00,
2013-01-22 13:35:00,-8.7,-12.9,30.32,South,173,1.0,2.0,81,0.00,,SCT091,0.00,VWS V14.01,2013-01-22 19:35:00,
2013-01-22 13:39:00,-8.6,-12.9,30.32,South,173,0.0,0.0,81,0.00,,BKN240,0.00,VWS V14.01,2013-01-22 19:39:00,
2013-01-22 13:40:00,-8.6,-12.9,30.32,South,173,0.0,0.0,81,0.00,,SCT091,0.00,VWS V14.01,2013-01-22 19:40:00,
2013-01-22 13:44:00,-8.4,-12.4,30.32,South,169,0.0,1.0,82,0.00,,BKN240,0.00,VWS V14.01,2013-01-22 19:44:00,
2013-01-22 13:45:00,-8.4,-12.4,30.32,South,169,0.0,1.0,82,0.00,,SCT091,0.00,VWS V14.01,2013-01-22 19:45:00,
2013-01-22 13:49:00,-8.3,-12.6,30.32,South,171,1.0,4.0,81,0.00,,BKN240,0.00,VWS V14.01,2013-01-22 19:49:00,
2013-01-22 13:50:00,-8.3,-12.6,30.32,South,171,1.0,4.0,81,0.00,,SCT091,0.00,VWS V14.01,2013-01-22 19:50:00,
2013-01-22 13:54:00,-8.5,-13.0,30.32,South,173,2.0,4.0,80,0.00,,BKN240,0.00,VWS V14.01,2013-01-22 19:54:00,
2013-01-22 13:55:00,-8.5,-13.0,30.32,South,173,2.0,4.0,80,0.00,,SCT091,0.00,VWS V14.01,2013-01-22 19:55:00,
2013-01-22 14:00:00,-8.4,-12.6,30.31,South,173,2.0,2.0,81,0.00,,SCT091,0.00,VWS V14.01,2013-01-22 20:00:00,
2013-01-22 14:04:00,-8.3,-12.6,30.31,South,173,0.0,0.0,81,0.00,,BKN240,0.00,VWS V14.01,2013-01-22 20:04:00,
2013-01-22 14:05:00,-8.3,-12.6,30.31,South,173,0.0,0.0,81,0.00,,SCT091,0.00,VWS V14.01,2013-01-22 20:05:00,
2013-01-22 14:10:00,-8.1,-12.4,30.32,South,173,0.0,0.0,81,0.00,,SCT091,0.00,VWS V14.01,2013-01-22 20:10:00,
2013-01-22 14:14:00,-8.0,-12.3,30.31,South,176,0.0,0.0,81,0.00,,BKN240,0.00,VWS V14.01,2013-01-22 20:14:00,
2013-01-22 14:15:00,-8.0,-12.3,30.31,South,176,0.0,0.0,81,0.00,,SCT091,0.00,VWS V14.01,2013-01-22 20:15:00,
2013-01-22 14:19:00,-7.9,-12.2,30.31,South,171,2.0,2.0,81,0.00,,BKN240,0.00,VWS V14.01,2013-01-22 20:19:00,
2013-01-22 14:20:00,-7.9,-12.2,30.31,South,171,2.0,2.0,81,0.00,,SCT091,0.00,VWS V14.01,2013-01-22 20:20:00,
2013-01-22 14:24:00,-8.1,-12.6,30.32,South,175,1.0,4.0,80,0.00,,BKN240,0.00,VWS V14.01,2013-01-22 20:24:00,
2013-01-22 14:25:00,-8.1,-12.6,30.32,South,175,1.0,4.0,80,0.00,,SCT091,0.00,VWS V14.01,2013-01-22 20:25:00,
2013-01-22 14:29:00,-8.4,-12.9,30.32,South,175,0.0,0.0,80,0.00,,BKN240,0.00,VWS V14.01,2013-01-22 20:29:00,
2013-01-22 14:30:00,-8.4,-12.9,30.32,South,175,0.0,0.0,80,0.00,,SCT091,0.00,VWS V14.01,2013-01-22 20:30:00,
2013-01-22 14:34:00,-8.5,-12.8,30.31,South,180,0.0,2.0,81,0.00,,BKN240,0.00,VWS V14.01,2013-01-22 20:34:00,
2013-01-22 14:35:00,-8.5,-12.8,30.31,South,180,0.0,2.0,81,0.00,,SCT091,0.00,VWS V14.01,2013-01-22 20:35:00,
2013-01-22 14:39:00,-8.6,-12.9,30.31,South,177,1.0,2.0,81,0.00,,BKN240,0.00,VWS V14.01,2013-01-22 20:39:00,
2013-01-22 14:40:00,-8.6,-12.9,30.31,South,177,1.0,2.0,81,0.00,,SCT091,0.00,VWS V14.01,2013-01-22 20:40:00,
2013-01-22 14:44:00,-8.6,-12.9,30.32,South,180,0.0,1.0,81,0.00,,FEW240,0.00,VWS V14.01,2013-01-22 20:44:00,
2013-01-22 14:45:00,-8.6,-12.9,30.32,South,180,0.0,1.0,81,0.00,,SCT091,0.00,VWS V14.01,2013-01-22 20:45:00,
2013-01-22 14:49:00,-8.4,-12.4,30.32,South,180,0.0,2.0,82,0.00,,FEW240,0.00,VWS V14.01,2013-01-22 20:49:00,
2013-01-22 14:50:00,-8.4,-12.4,30.32,South,180,0.0,2.0,82,0.00,,SCT091,0.00,VWS V14.01,2013-01-22 20:50:00,
2013-01-22 14:54:00,-8.1,-12.1,30.32,South,178,0.0,0.0,82,0.00,,FEW240,0.00,VWS V14.01,2013-01-22 20:54:00,
2013-01-22 14:55:00,-8.1,-12.1,30.32,South,178,0.0,0.0,82,0.00,,SCT091,0.00,VWS V14.01,2013-01-22 20:55:00,
2013-01-22 14:59:00,-7.8,-11.8,30.31,South,178,0.0,2.0,82,0.00,,FEW240,0.00,VWS V14.01,2013-01-22 20:59:00,
2013-01-22 15:00:00,-7.8,-11.8,30.31,South,178,0.0,2.0,82,0.00,,SCT091,0.00,VWS V14.01,2013-01-22 21:00:00,
2013-01-22 15:04:00,-7.7,-11.7,30.32,South,178,0.0,2.0,82,0.00,,FEW240,0.00,VWS V14.01,2013-01-22 21:04:00,
2013-01-22 15:05:00,-7.7,-11.7,30.32,South,178,0.0,2.0,82,0.00,,SCT091,0.00,VWS V14.01,2013-01-22 21:05:00,
2013-01-22 15:09:00,-7.6,-11.6,30.32,South,178,1.0,2.0,82,0.00,,FEW240,0.00,VWS V14.01,2013-01-22 21:09:00,
2013-01-22 15:10:00,-7.6,-11.6,30.32,South,178,1.0,2.0,82,0.00,,SCT091,0.00,VWS V14.01,2013-01-22 21:10:00,
2013-01-22 15:14:00,-7.7,-11.7,30.32,South,178,0.0,0.0,82,0.00,,FEW240,0.00,VWS V14.01,2013-01-22 21:14:00,
2013-01-22 15:15:00,-7.7,-11.7,30.32,South,178,0.0,0.0,82,0.00,,SCT091,0.00,VWS V14.01,2013-01-22 21:15:00,
2013-01-22 15:19:00,-7.8,-12.1,30.32,South,178,0.0,0.0,81,0.00,,FEW240,0.00,VWS V14.01,2013-01-22 21:19:00,
2013-01-22 15:20:00,-7.8,-12.1,30.32,South,178,0.0,0.0,81,0.00,,SCT091,0.00,VWS V14.01,2013-01-22 21:20:00,
2013-01-22 15:24:00,-8.0,-12.0,30.31,South,177,0.0,0.0,82,0.00,,FEW240,0.00,VWS V14.01,2013-01-22 21:24:00,
2013-01-22 15:25:00,-8.0,-12.0,30.31,South,177,0.0,0.0,82,0.00,,SCT091,0.00,VWS V14.01,2013-01-22 21:25:00,
2013-01-22 15:29:00,-8.1,-12.1,30.31,South,178,0.0,1.0,82,0.00,,FEW240,0.00,VWS V14.01,2013-01-22 21:29:00,
2013-01-22 15:30:00,-8.1,-12.1,30.31,South,178,0.0,1.0,82,0.00,,SCT091,0.00,VWS V14.01,2013-01-22 21:30:00,
2013-01-22 15:34:00,-8.1,-12.1,30.31,South,177,0.0,0.0,82,0.00,,FEW240,0.00,VWS V14.01,2013-01-22 21:34:00,
2013-01-22 15:35:00,-8.1,-12.1,30.31,South,177,0.0,0.0,82,0.00,,SCT091,0.00,VWS V14.01,2013-01-22 21:35:00,
2013-01-22 15:39:00,-8.2,-12.0,30.31,South,177,0.0,0.0,83,0.00,,FEW240,0.00,VWS V14.01,2013-01-22 21:39:00,
2013-01-22 15:40:00,-8.2,-12.0,30.31,South,177,0.0,0.0,83,0.00,,SCT091,0.00,VWS V14.01,2013-01-22 21:40:00,
2013-01-22 15:44:00,-8.2,-12.0,30.31,South,177,0.0,0.0,83,0.00,,BKN240,0.00,VWS V14.01,2013-01-22 21:44:00,
2013-01-22 15:45:00,-8.2,-12.0,30.31,South,177,0.0,0.0,83,0.00,,SCT091,0.00,VWS V14.01,2013-01-22 21:45:00,
2013-01-22 15:49:00,-8.1,-11.9,30.31,South,177,0.0,0.0,83,0.00,,BKN240,0.00,VWS V14.01,2013-01-22 21:49:00,
2013-01-22 15:50:00,-8.1,-11.9,30.31,South,177,0.0,0.0,83,0.00,,SCT091,0.00,VWS V14.01,2013-01-22 21:50:00,
2013-01-22 15:54:00,-8.1,-11.9,30.31,South,181,4.0,4.0,83,0.00,,BKN240,0.00,VWS V14.01,2013-01-22 21:54:00,
2013-01-22 15:55:00,-8.1,-11.9,30.31,South,181,4.0,4.0,83,0.00,,SCT091,0.00,VWS V14.01,2013-01-22 21:55:00,
2013-01-22 15:59:00,-8.2,-12.0,30.30,South,179,1.0,4.0,83,0.00,,BKN240,0.00,VWS V14.01,2013-01-22 21:59:00,
2013-01-22 16:00:00,-8.2,-12.0,30.30,South,179,1.0,4.0,83,0.00,,SCT091,0.00,VWS V14.01,2013-01-22 22:00:00,
2013-01-22 16:04:00,-8.3,-12.1,30.30,South,176,0.0,2.0,83,0.00,,BKN240,0.00,VWS V14.01,2013-01-22 22:04:00,
2013-01-22 16:05:00,-8.3,-12.1,30.30,South,176,0.0,2.0,83,0.00,,SCT091,0.00,VWS V14.01,2013-01-22 22:05:00,
2013-01-22 16:09:00,-8.3,-12.1,30.30,South,173,0.0,0.0,83,0.00,,BKN240,0.00,VWS V14.01,2013-01-22 22:09:00,
2013-01-22 16:10:00,-8.3,-12.1,30.30,South,173,0.0,0.0,83,0.00,,FEW250,0.00,VWS V14.01,2013-01-22 22:10:00,
2013-01-22 16:14:00,-8.2,-11.7,30.30,South,173,0.0,0.0,84,0.00,,BKN240,0.00,VWS V14.01,2013-01-22 22:14:00,
2013-01-22 16:15:00,-8.2,-11.7,30.30,South,173,0.0,0.0,84,0.00,,SCT091,0.00,VWS V14.01,2013-01-22 22:15:00,
2013-01-22 16:19:00,-8.1,-11.6,30.30,South,173,0.0,2.0,84,0.00,,BKN240,0.00,VWS V14.01,2013-01-22 22:19:00,
2013-01-22 16:20:00,-8.1,-11.6,30.30,South,173,0.0,2.0,84,0.00,,SCT091,0.00,VWS V14.01,2013-01-22 22:20:00,
2013-01-22 16:24:00,-8.2,-11.7,30.30,South,173,0.0,1.0,84,0.00,,BKN240,0.00,VWS V14.01,2013-01-22 22:24:00,
2013-01-22 16:25:00,-8.2,-11.7,30.30,South,173,0.0,1.0,84,0.00,,SCT091,0.00,VWS V14.01,2013-01-22 22:25:00,
2013-01-22 16:29:00,-8.3,-11.8,30.30,South,173,1.0,2.0,84,0.00,,BKN240,0.00,VWS V14.01,2013-01-22 22:29:00,
2013-01-22 16:30:00,-8.3,-11.8,30.30,South,173,1.0,2.0,84,0.00,,SCT091,0.00,VWS V14.01,2013-01-22 22:30:00,
2013-01-22 16:34:00,-8.5,-12.0,30.30,South,173,0.0,1.0,84,0.00,,BKN240,0.00,VWS V14.01,2013-01-22 22:34:00,
2013-01-22 16:35:00,-8.5,-12.0,30.30,South,173,0.0,1.0,84,0.00,,SCT091,0.00,VWS V14.01,2013-01-22 22:35:00,
2013-01-22 16:39:00,-8.8,-12.3,30.30,South,173,0.0,0.0,84,0.00,,BKN240,0.00,VWS V14.01,2013-01-22 22:39:00,
2013-01-22 16:40:00,-8.8,-12.3,30.30,South,173,0.0,0.0,84,0.00,,SCT091,0.00,VWS V14.01,2013-01-22 22:40:00,
2013-01-22 16:44:00,-9.0,-12.5,30.30,South,173,0.0,0.0,84,0.00,,BKN240,0.00,VWS V14.01,2013-01-22 22:44:00,
2013-01-22 16:45:00,-9.0,-12.5,30.30,South,173,0.0,0.0,84,0.00,,SCT091,0.00,VWS V14.01,2013-01-22 22:45:00,
2013-01-22 16:49:00,-9.2,-12.7,30.29,South,173,0.0,0.0,84,0.00,,BKN240,0.00,VWS V14.01,2013-01-22 22:49:00,
2013-01-22 16:50:00,-9.2,-12.7,30.29,South,173,0.0,0.0,84,0.00,,SCT091,0.00,VWS V14.01,2013-01-22 22:50:00,
2013-01-22 16:54:00,-9.5,-13.0,30.29,South,173,0.0,0.0,84,0.00,,BKN240,0.00,VWS V14.01,2013-01-22 22:54:00,
2013-01-22 16:55:00,-9.5,-13.0,30.29,South,173,0.0,0.0,84,0.00,,SCT091,0.00,VWS V14.01,2013-01-22 22:55:00,
2013-01-22 16:59:00,-9.7,-13.0,30.29,South,173,0.0,0.0,85,0.00,,BKN240,0.00,VWS V14.01,2013-01-22 22:59:00,
2013-01-22 17:00:00,-9.7,-13.0,30.29,South,173,0.0,0.0,85,0.00,,SCT091,0.00,VWS V14.01,2013-01-22 23:00:00,
2013-01-22 17:04:00,-10.0,-13.3,30.29,South,173,0.0,0.0,85,0.00,,BKN240,0.00,VWS V14.01,2013-01-22 23:04:00,
2013-01-22 17:05:00,-10.0,-13.3,30.29,South,173,0.0,0.0,85,0.00,,SCT091,0.00,VWS V14.01,2013-01-22 23:05:00,
2013-01-22 17:09:00,-10.3,-13.6,30.29,South,173,0.0,0.0,85,0.00,,BKN240,0.00,VWS V14.01,2013-01-22 23:09:00,
2013-01-22 17:10:00,-10.3,-13.6,30.29,South,173,0.0,0.0,85,0.00,,SCT091,0.00,VWS V14.01,2013-01-22 23:10:00,
2013-01-22 17:14:00,-10.5,-13.8,30.28,South,173,0.0,0.0,85,0.00,,BKN240,0.00,VWS V14.01,2013-01-22 23:14:00,
2013-01-22 17:15:00,-10.5,-13.8,30.28,South,173,0.0,0.0,85,0.00,,SCT091,0.00,VWS V14.01,2013-01-22 23:15:00,
2013-01-22 17:19:00,-10.7,-13.9,30.28,South,173,0.0,0.0,85,0.00,,BKN240,0.00,VWS V14.01,2013-01-22 23:19:00,
2013-01-22 17:20:00,-10.7,-13.9,30.28,South,173,0.0,0.0,85,0.00,,SCT091,0.00,VWS V14.01,2013-01-22 23:20:00,
2013-01-22 17:24:00,-10.9,-13.9,30.28,South,173,0.0,0.0,86,0.00,,BKN240,0.00,VWS V14.01,2013-01-22 23:24:00,
2013-01-22 17:25:00,-10.9,-13.9,30.28,South,173,0.0,0.0,86,0.00,,FEW250,0.00,VWS V14.01,2013-01-22 23:25:00,
2013-01-22 17:29:00,-11.0,-14.0,30.28,South,173,0.0,0.0,86,0.00,,BKN240,0.00,VWS V14.01,2013-01-22 23:29:00,
2013-01-22 17:30:00,-11.0,-14.0,30.28,South,173,0.0,0.0,86,0.00,,SCT091,0.00,VWS V14.01,2013-01-22 23:30:00,
2013-01-22 17:34:00,-11.2,-14.2,30.28,South,173,0.0,1.0,86,0.00,,BKN240,0.00,VWS V14.01,2013-01-22 23:34:00,
2013-01-22 17:35:00,-11.2,-14.2,30.28,South,173,0.0,1.0,86,0.00,,SCT091,0.00,VWS V14.01,2013-01-22 23:35:00,
2013-01-22 17:39:00,-11.3,-14.3,30.28,South,173,0.0,0.0,86,0.00,,BKN240,0.00,VWS V14.01,2013-01-22 23:39:00,
2013-01-22 17:40:00,-11.3,-14.3,30.28,South,173,0.0,0.0,86,0.00,,SCT091,0.00,VWS V14.01,2013-01-22 23:40:00,
2013-01-22 17:44:00,-11.5,-14.3,30.28,South,173,0.0,0.0,87,0.00,,FEW240,0.00,VWS V14.01,2013-01-22 23:44:00,
2013-01-22 17:45:00,-11.5,-14.3,30.28,South,173,0.0,0.0,87,0.00,,SCT091,0.00,VWS V14.01,2013-01-22 23:45:00,
2013-01-22 17:49:00,-11.6,-14.6,30.27,South,173,0.0,0.0,86,0.00,,FEW240,0.00,VWS V14.01,2013-01-22 23:49:00,
2013-01-22 17:50:00,-11.6,-14.6,30.27,South,173,0.0,0.0,86,0.00,,SCT091,0.00,VWS V14.01,2013-01-22 23:50:00,
2013-01-22 17:54:00,-11.8,-14.6,30.27,South,173,0.0,1.0,87,0.00,,FEW240,0.00,VWS V14.01,2013-01-22 23:54:00,
2013-01-22 17:55:00,-11.8,-14.6,30.27,South,173,0.0,1.0,87,0.00,,SCT091,0.00,VWS V14.01,2013-01-22 23:55:00,
2013-01-22 17:59:00,-12.0,-14.8,30.27,South,173,0.0,1.0,87,0.00,,FEW240,0.00,VWS V14.01,2013-01-22 23:59:00,
2013-01-22 18:00:00,-12.0,-14.8,30.27,South,173,0.0,1.0,87,0.00,,SCT091,0.00,VWS V14.01,2013-01-23 00:00:00,
2013-01-22 18:04:00,-12.0,-14.8,30.27,South,173,1.0,2.0,87,0.00,,FEW240,0.00,VWS V14.01,2013-01-23 00:04:00,
2013-01-22 18:05:00,-12.0,-14.8,30.27,South,173,1.0,2.0,87,0.00,,SCT091,0.00,VWS V14.01,2013-01-23 00:05:00,
2013-01-22 18:09:00,-12.2,-15.0,30.27,South,173,0.0,0.0,87,0.00,,FEW240,0.00,VWS V14.01,2013-01-23 00:09:00,
2013-01-22 18:10:00,-12.2,-15.0,30.27,South,173,0.0,0.0,87,0.00,,SCT091,0.00,VWS V14.01,2013-01-23 00:10:00,
2013-01-22 18:14:00,-12.4,-15.2,30.27,South,173,0.0,0.0,87,0.00,,FEW240,0.00,VWS V14.01,2013-01-23 00:14:00,
2013-01-22 18:15:00,-12.4,-15.2,30.27,South,173,0.0,0.0,87,0.00,,SCT091,0.00,VWS V14.01,2013-01-23 00:15:00,
2013-01-22 18:20:00,-12.6,-15.4,30.26,South,173,0.0,0.0,87,0.00,,SCT091,0.00,VWS V14.01,2013-01-23 00:20:00,
2013-01-22 18:24:00,-12.8,-15.6,30.26,South,173,0.0,0.0,87,0.00,,FEW140,0.00,VWS V14.01,2013-01-23 00:24:00,
2013-01-22 18:25:00,-12.8,-15.6,30.26,South,173,0.0,0.0,87,0.00,,SCT091,0.00,VWS V14.01,2013-01-23 00:25:00,
2013-01-22 18:29:00,-13.0,-15.8,30.26,South,173,0.0,0.0,87,0.00,,FEW140,0.00,VWS V14.01,2013-01-23 00:29:00,
2013-01-22 18:30:00,-13.0,-15.8,30.26,South,173,0.0,0.0,87,0.00,,SCT091,0.00,VWS V14.01,2013-01-23 00:30:00,
2013-01-22 18:34:00,-13.3,-16.0,30.26,South,173,0.0,0.0,87,0.00,,FEW140,0.00,VWS V14.01,2013-01-23 00:34:00,
2013-01-22 18:35:00,-13.3,-16.0,30.26,South,173,0.0,0.0,87,0.00,,SCT091,0.00,VWS V14.01,2013-01-23 00:35:00,
2013-01-22 18:39:00,-13.4,-16.1,30.26,South,173,0.0,0.0,87,0.00,,FEW140,0.00,VWS V14.01,2013-01-23 00:39:00,
2013-01-22 18:40:00,-13.4,-16.1,30.26,South,173,0.0,0.0,87,0.00,,SCT091,0.00,VWS V14.01,2013-01-23 00:40:00,
2013-01-22 18:44:00,-13.6,-16.4,30.26,South,173,0.0,0.0,87,0.00,,FEW140,0.00,VWS V14.01,2013-01-23 00:44:00,
2013-01-22 18:45:00,-13.6,-16.4,30.26,South,173,0.0,0.0,87,0.00,,SCT091,0.00,VWS V14.01,2013-01-23 00:45:00,
2013-01-22 18:49:00,-13.8,-16.5,30.26,South,173,0.0,0.0,87,0.00,,FEW140,0.00,VWS V14.01,2013-01-23 00:49:00,
2013-01-22 18:50:00,-13.8,-16.5,30.26,South,173,0.0,0.0,87,0.00,,SCT091,0.00,VWS V14.01,2013-01-23 00:50:00,
2013-01-22 18:54:00,-13.8,-16.5,30.26,South,173,0.0,0.0,87,0.00,,FEW140,0.00,VWS V14.01,2013-01-23 00:54:00,
2013-01-22 18:55:00,-13.8,-16.5,30.26,South,173,0.0,0.0,87,0.00,,SCT091,0.00,VWS V14.01,2013-01-23 00:55:00,
2013-01-22 18:59:00,-13.9,-16.6,30.25,South,173,0.0,0.0,87,0.00,,FEW140,0.00,VWS V14.01,2013-01-23 00:59:00,
2013-01-22 19:00:00,-13.9,-16.6,30.26,South,173,0.0,0.0,87,0.00,,FEW250,0.00,VWS V14.01,2013-01-23 01:00:00,
2013-01-22 19:04:00,-13.9,-16.4,30.25,South,173,0.0,0.0,88,0.00,,FEW140,0.00,VWS V14.01,2013-01-23 01:04:00,
2013-01-22 19:05:00,-13.9,-16.4,30.25,South,173,0.0,0.0,88,0.00,,SCT091,0.00,VWS V14.01,2013-01-23 01:05:00,
2013-01-22 19:09:00,-14.0,-16.7,30.25,South,173,0.0,2.0,87,0.00,,FEW140,0.00,VWS V14.01,2013-01-23 01:09:00,
2013-01-22 19:10:00,-14.0,-16.7,30.25,South,173,0.0,2.0,87,0.00,,SCT091,0.00,VWS V14.01,2013-01-23 01:10:00,
2013-01-22 19:14:00,-13.9,-16.4,30.25,South,173,1.0,1.0,88,0.00,,FEW140,0.00,VWS V14.01,2013-01-23 01:14:00,
2013-01-22 19:15:00,-13.9,-16.4,30.25,South,173,1.0,1.0,88,0.00,,SCT091,0.00,VWS V14.01,2013-01-23 01:15:00,
2013-01-22 19:19:00,-13.9,-16.4,30.25,South,173,1.0,1.0,88,0.00,,FEW140,0.00,VWS V14.01,2013-01-23 01:19:00,
2013-01-22 19:20:00,-13.9,-16.4,30.25,South,173,1.0,1.0,88,0.00,,SCT091,0.00,VWS V14.01,2013-01-23 01:20:00,
2013-01-22 19:24:00,-13.9,-16.4,30.25,South,173,0.0,0.0,88,0.00,,FEW140,0.00,VWS V14.01,2013-01-23 01:24:00,
2013-01-22 19:25:00,-13.9,-16.4,30.24,South,173,0.0,0.0,88,0.00,,SCT091,0.00,VWS V14.01,2013-01-23 01:25:00,
2013-01-22 19:30:00,-13.9,-16.4,30.24,South,173,0.0,0.0,88,0.00,,SCT091,0.00,VWS V14.01,2013-01-23 01:30:00,
2013-01-22 19:34:00,-14.0,-16.7,30.25,South,173,0.0,0.0,87,0.00,,FEW140,0.00,VWS V14.01,2013-01-23 01:34:00,
2013-01-22 19:35:00,-14.0,-16.7,30.25,South,173,0.0,0.0,87,0.00,,SCT091,0.00,VWS V14.01,2013-01-23 01:35:00,
2013-01-22 19:39:00,-14.0,-16.7,30.25,South,173,0.0,0.0,87,0.00,,FEW140,0.00,VWS V14.01,2013-01-23 01:39:00,
2013-01-22 19:40:00,-14.0,-16.7,30.24,South,173,0.0,0.0,87,0.00,,SCT091,0.00,VWS V14.01,2013-01-23 01:40:00,
2013-01-22 19:44:00,-14.1,-16.8,30.24,South,173,0.0,0.0,87,0.00,,BKN089,0.00,VWS V14.01,2013-01-23 01:44:00,
2013-01-22 19:45:00,-14.1,-16.8,30.24,South,173,0.0,0.0,87,0.00,,SCT091,0.00,VWS V14.01,2013-01-23 01:45:00,
2013-01-22 19:49:00,-14.2,-16.7,30.24,South,173,0.0,0.0,88,0.00,,BKN089,0.00,VWS V14.01,2013-01-23 01:49:00,
2013-01-22 19:50:00,-14.2,-16.7,30.24,South,173,0.0,0.0,88,0.00,,SCT091,0.00,VWS V14.01,2013-01-23 01:50:00,
2013-01-22 19:54:00,-14.1,-16.6,30.24,South,173,0.0,0.0,88,0.00,,BKN089,0.00,VWS V14.01,2013-01-23 01:54:00,
2013-01-22 19:55:00,-14.1,-16.6,30.24,South,173,0.0,0.0,88,0.00,,SCT091,0.00,VWS V14.01,2013-01-23 01:55:00,
2013-01-22 19:59:00,-13.9,-16.4,30.24,South,173,0.0,0.0,88,0.00,,BKN089,0.00,VWS V14.01,2013-01-23 01:59:00,
2013-01-22 20:00:00,-13.9,-16.4,30.24,South,173,0.0,0.0,88,0.00,,SCT091,0.00,VWS V14.01,2013-01-23 02:00:00,
2013-01-22 20:04:00,-13.6,-15.9,30.23,South,173,0.0,1.0,89,0.00,,BKN089,0.00,VWS V14.01,2013-01-23 02:04:00,
2013-01-22 20:05:00,-13.6,-15.9,30.23,South,173,0.0,1.0,89,0.00,,SCT091,0.00,VWS V14.01,2013-01-23 02:05:00,
2013-01-22 20:09:00,-13.4,-15.7,30.23,South,173,0.0,0.0,89,0.00,,BKN089,0.00,VWS V14.01,2013-01-23 02:09:00,
2013-01-22 20:10:00,-13.4,-15.7,30.23,South,173,0.0,0.0,89,0.00,,SCT091,0.00,VWS V14.01,2013-01-23 02:10:00,
2013-01-22 20:14:00,-13.1,-15.4,30.23,South,173,0.0,0.0,89,0.00,,BKN089,0.00,VWS V14.01,2013-01-23 02:14:00,
2013-01-22 20:15:00,-13.1,-15.4,30.23,South,173,0.0,0.0,89,0.00,,SCT091,0.00,VWS V14.01,2013-01-23 02:15:00,
2013-01-22 20:19:00,-12.9,-15.2,30.24,South,173,0.0,0.0,89,0.00,,BKN089,0.00,VWS V14.01,2013-01-23 02:19:00,
2013-01-22 20:20:00,-12.9,-15.2,30.24,South,173,0.0,0.0,89,0.00,,SCT091,0.00,VWS V14.01,2013-01-23 02:20:00,
2013-01-22 20:24:00,-12.6,-14.9,30.23,South,173,0.0,0.0,89,0.00,,BKN089,0.00,VWS V14.01,2013-01-23 02:24:00,
2013-01-22 20:25:00,-12.6,-14.9,30.23,South,173,0.0,0.0,89,0.00,,SCT091,0.00,VWS V14.01,2013-01-23 02:25:00,
2013-01-22 20:29:00,-12.2,-14.3,30.23,South,175,0.0,0.0,90,0.00,,BKN089,0.00,VWS V14.01,2013-01-23 02:29:00,
2013-01-22 20:30:00,-12.2,-14.3,30.23,South,175,0.0,0.0,90,0.00,,SCT091,0.00,VWS V14.01,2013-01-23 02:30:00,
2013-01-22 20:34:00,-11.8,-13.9,30.23,South,176,0.0,2.0,90,0.00,,BKN089,0.00,VWS V14.01,2013-01-23 02:34:00,
2013-01-22 20:35:00,-11.8,-13.9,30.23,South,176,0.0,2.0,90,0.00,,SCT091,0.00,VWS V14.01,2013-01-23 02:35:00,
2013-01-22 20:39:00,-11.3,-13.4,30.23,South,182,0.0,0.0,90,0.00,,BKN089,0.00,VWS V14.01,2013-01-23 02:39:00,
2013-01-22 20:40:00,-11.3,-13.4,30.23,South,182,0.0,0.0,90,0.00,,SCT091,0.00,VWS V14.01,2013-01-23 02:40:00,
2013-01-22 20:44:00,-10.9,-13.2,30.23,South,185,0.0,1.0,89,0.00,,BKN083,0.00,VWS V14.01,2013-01-23 02:44:00,
2013-01-22 20:45:00,-10.9,-13.2,30.23,South,185,0.0,1.0,89,0.00,,SCT091,0.00,VWS V14.01,2013-01-23 02:45:00,
2013-01-22 20:49:00,-10.7,-13.0,30.23,South,185,0.0,0.0,89,0.00,,BKN083,0.00,VWS V14.01,2013-01-23 02:49:00,
2013-01-22 20:50:00,-10.7,-13.0,30.23,South,185,0.0,0.0,89,0.00,,SCT091,0.00,VWS V14.01,2013-01-23 02:50:00,
2013-01-22 20:54:00,-10.5,-12.8,30.23,South,185,0.0,0.0,89,0.00,,BKN083,0.00,VWS V14.01,2013-01-23 02:54:00,
2013-01-22 20:55:00,-10.5,-12.8,30.23,South,185,0.0,0.0,89,0.00,,SCT091,0.00,VWS V14.01,2013-01-23 02:55:00,
2013-01-22 20:59:00,-10.3,-12.6,30.22,South,185,0.0,0.0,89,0.00,,BKN083,0.00,VWS V14.01,2013-01-23 02:59:00,
2013-01-22 21:00:00,-10.3,-12.6,30.22,South,185,0.0,0.0,89,0.00,,SCT091,0.00,VWS V14.01,2013-01-23 03:00:00,
2013-01-22 21:04:00,-10.1,-12.4,30.22,South,186,0.0,0.0,89,0.00,,BKN083,0.00,VWS V14.01,2013-01-23 03:04:00,
2013-01-22 21:05:00,-10.1,-12.4,30.22,South,186,0.0,0.0,89,0.00,,SCT091,0.00,VWS V14.01,2013-01-23 03:05:00,
2013-01-22 21:09:00,-9.9,-12.2,30.22,South,186,0.0,0.0,89,0.00,,BKN083,0.00,VWS V14.01,2013-01-23 03:09:00,
2013-01-22 21:10:00,-9.9,-12.2,30.22,South,186,0.0,0.0,89,0.00,,SCT091,0.00,VWS V14.01,2013-01-23 03:10:00,
2013-01-22 21:14:00,-9.7,-12.1,30.22,South,185,0.0,0.0,89,0.00,,BKN083,0.00,VWS V14.01,2013-01-23 03:14:00,
2013-01-22 21:15:00,-9.7,-12.1,30.22,South,185,0.0,0.0,89,0.00,,SCT091,0.00,VWS V14.01,2013-01-23 03:15:00,
2013-01-22 21:20:00,-9.6,-11.9,30.22,South,185,0.0,0.0,89,0.00,,SCT091,0.00,VWS V14.01,2013-01-23 03:20:00,
2013-01-22 21:24:00,-9.5,-12.1,30.22,South,186,0.0,0.0,88,0.00,,BKN083,0.00,VWS V14.01,2013-01-23 03:24:00,
2013-01-22 21:25:00,-9.5,-12.1,30.22,South,186,0.0,0.0,88,0.00,,SCT091,0.00,VWS V14.01,2013-01-23 03:25:00,
2013-01-22 21:29:00,-9.4,-12.0,30.22,South,186,0.0,0.0,88,0.00,,BKN083,0.00,VWS V14.01,2013-01-23 03:29:00,
2013-01-22 21:30:00,-9.4,-12.0,30.22,South,186,0.0,0.0,88,0.00,,SCT091,0.00,VWS V14.01,2013-01-23 03:30:00,
2013-01-22 21:34:00,-9.4,-12.0,30.21,South,186,0.0,0.0,88,0.00,,BKN083,0.00,VWS V14.01,2013-01-23 03:34:00,
2013-01-22 21:35:00,-9.4,-12.0,30.21,South,186,0.0,0.0,88,0.00,,SCT091,0.00,VWS V14.01,2013-01-23 03:35:00,
2013-01-22 21:39:00,-9.3,-11.9,30.21,South,186,0.0,0.0,88,0.00,,BKN083,0.00,VWS V14.01,2013-01-23 03:39:00,
2013-01-22 21:40:00,-9.3,-11.9,30.21,South,186,0.0,0.0,88,0.00,,SCT091,0.00,VWS V14.01,2013-01-23 03:40:00,
2013-01-22 21:44:00,-9.2,-11.8,30.21,South,186,0.0,0.0,88,0.00,,BKN076,0.00,VWS V14.01,2013-01-23 03:44:00,
2013-01-22 21:45:00,-9.2,-11.8,30.21,South,186,0.0,0.0,88,0.00,,SCT091,0.00,VWS V14.01,2013-01-23 03:45:00,
2013-01-22 21:49:00,-8.9,-11.3,30.21,South,186,0.0,0.0,89,0.00,,BKN076,0.00,VWS V14.01,2013-01-23 03:49:00,
2013-01-22 21:50:00,-8.9,-11.3,30.21,South,186,0.0,0.0,89,0.00,,SCT091,0.00,VWS V14.01,2013-01-23 03:50:00,
2013-01-22 21:54:00,-8.3,-10.7,30.21,South,187,1.0,2.0,89,0.00,,BKN076,0.00,VWS V14.01,2013-01-23 03:54:00,
2013-01-22 21:55:00,-8.3,-10.7,30.21,South,187,1.0,2.0,89,0.00,,SCT091,0.00,VWS V14.01,2013-01-23 03:55:00,
2013-01-22 21:59:00,-7.6,-10.0,30.21,South,189,1.0,1.0,89,0.00,,BKN076,0.00,VWS V14.01,2013-01-23 03:59:00,
2013-01-22 22:00:00,-7.6,-10.0,30.21,South,189,1.0,1.0,89,0.00,,SCT091,0.00,VWS V14.01,2013-01-23 04:00:00,
2013-01-22 22:04:00,-6.8,-9.2,30.21,SSW,198,2.0,3.0,89,0.00,,BKN076,0.00,VWS V14.01,2013-01-23 04:04:00,
2013-01-22 22:05:00,-6.8,-9.2,30.21,SSW,198,2.0,3.0,89,0.00,,SCT091,0.00,VWS V14.01,2013-01-23 04:05:00,
2013-01-22 22:09:00,-5.9,-8.3,30.21,SW,229,1.0,3.0,89,0.00,,BKN076,0.00,VWS V14.01,2013-01-23 04:09:00,
2013-01-22 22:10:00,-5.9,-8.3,30.21,SW,229,1.0,3.0,89,0.00,,SCT091,0.00,VWS V14.01,2013-01-23 04:10:00,
2013-01-22 22:15:00,-5.5,-8.1,30.21,WSW,240,0.0,2.0,88,0.00,,SCT091,0.00,VWS V14.01,2013-01-23 04:15:00,
2013-01-22 22:19:00,-5.2,-8.1,30.21,WSW,243,0.0,3.0,87,0.00,,BKN076,0.00,VWS V14.01,2013-01-23 04:19:00,
2013-01-22 22:20:00,-5.2,-8.1,30.21,WSW,243,0.0,3.0,87,0.00,,SCT091,0.00,VWS V14.01,2013-01-23 04:20:00,
2013-01-22 22:24:00,-5.0,-7.9,30.21,WSW,244,1.0,1.0,87,0.00,,BKN076,0.00,VWS V14.01,2013-01-23 04:24:00,
2013-01-22 22:25:00,-5.0,-7.9,30.21,WSW,244,1.0,1.0,87,0.00,,SCT091,0.00,VWS V14.01,2013-01-23 04:25:00,
2013-01-22 22:29:00,-4.9,-7.8,30.21,WSW,246,1.0,2.0,87,0.00,,BKN076,0.00,VWS V14.01,2013-01-23 04:29:00,
2013-01-22 22:30:00,-4.9,-7.8,30.21,WSW,246,1.0,2.0,87,0.00,,SCT091,0.00,VWS V14.01,2013-01-23 04:30:00,
2013-01-22 22:34:00,-4.9,-8.0,30.21,WSW,245,0.0,0.0,86,0.00,,BKN076,0.00,VWS V14.01,2013-01-23 04:34:00,
2013-01-22 22:35:00,-4.9,-8.0,30.21,WSW,245,0.0,0.0,86,0.00,,SCT091,0.00,VWS V14.01,2013-01-23 04:35:00,
2013-01-22 22:39:00,-4.9,-8.0,30.21,WSW,246,0.0,0.0,86,0.00,,BKN076,0.00,VWS V14.01,2013-01-23 04:39:00,
2013-01-22 22:40:00,-4.9,-8.0,30.21,WSW,246,0.0,0.0,86,0.00,,SCT091,0.00,VWS V14.01,2013-01-23 04:40:00,
2013-01-22 22:44:00,-5.0,-8.1,30.21,WSW,246,0.0,0.0,86,0.00,,BKN068,0.00,VWS V14.01,2013-01-23 04:44:00,
2013-01-22 22:45:00,-5.0,-8.1,30.21,WSW,246,0.0,0.0,86,0.00,,SCT091,0.00,VWS V14.01,2013-01-23 04:45:00,
2013-01-22 22:49:00,-5.1,-8.2,30.21,WSW,245,0.0,1.0,86,0.00,,BKN068,0.00,VWS V14.01,2013-01-23 04:49:00,
2013-01-22 22:50:00,-5.1,-8.2,30.21,WSW,245,0.0,1.0,86,0.00,,SCT091,0.00,VWS V14.01,2013-01-23 04:50:00,
2013-01-22 22:55:00,-5.2,-8.3,30.21,WSW,246,0.0,2.0,86,0.00,,SCT091,0.00,VWS V14.01,2013-01-23 04:55:00,
2013-01-22 22:59:00,-5.3,-8.4,30.21,WSW,246,0.0,0.0,86,0.00,,BKN068,0.00,VWS V14.01,2013-01-23 04:59:00,
2013-01-22 23:00:00,-5.3,-8.4,30.21,WSW,246,0.0,0.0,86,0.00,,SCT091,0.00,VWS V14.01,2013-01-23 05:00:00,
2013-01-22 23:04:00,-5.5,-8.6,30.21,WSW,247,0.0,1.0,86,0.00,,BKN068,0.00,VWS V14.01,2013-01-23 05:04:00,
2013-01-22 23:05:00,-5.5,-8.6,30.21,WSW,247,0.0,1.0,86,0.00,,SCT091,0.00,VWS V14.01,2013-01-23 05:05:00,
2013-01-22 23:09:00,-5.8,-8.9,30.21,WSW,247,0.0,0.0,86,0.00,,BKN068,0.00,VWS V14.01,2013-01-23 05:09:00,
2013-01-22 23:10:00,-5.8,-8.9,30.21,WSW,247,0.0,0.0,86,0.00,,SCT091,0.00,VWS V14.01,2013-01-23 05:10:00,
2013-01-22 23:14:00,-6.1,-9.2,30.21,WSW,248,1.0,1.0,86,0.00,,BKN068,0.00,VWS V14.01,2013-01-23 05:14:00,
2013-01-22 23:15:00,-6.1,-9.2,30.21,WSW,248,1.0,1.0,86,0.00,,SCT091,0.00,VWS V14.01,2013-01-23 05:15:00,
2013-01-22 23:19:00,-6.2,-9.3,30.21,WSW,245,0.0,0.0,86,0.00,,BKN068,0.00,VWS V14.01,2013-01-23 05:19:00,
2013-01-22 23:20:00,-6.2,-9.3,30.21,WSW,245,0.0,0.0,86,0.00,,SCT091,0.00,VWS V14.01,2013-01-23 05:20:00,
2013-01-22 23:24:00,-6.4,-9.2,30.21,WSW,245,0.0,0.0,87,0.00,,BKN068,0.00,VWS V14.01,2013-01-23 05:24:00,
2013-01-22 23:25:00,-6.4,-9.2,30.21,WSW,245,0.0,0.0,87,0.00,,SCT091,0.00,VWS V14.01,2013-01-23 05:25:00,
2013-01-22 23:29:00,-6.4,-9.2,30.21,WSW,245,0.0,0.0,87,0.00,,BKN068,0.00,VWS V14.01,2013-01-23 05:29:00,
2013-01-22 23:30:00,-6.4,-9.2,30.21,WSW,245,0.0,0.0,87,0.00,,SCT091,0.00,VWS V14.01,2013-01-23 05:30:00,
2013-01-22 23:34:00,-6.4,-9.0,30.21,WSW,246,0.0,0.0,88,0.00,,BKN068,0.00,VWS V14.01,2013-01-23 05:34:00,
2013-01-22 23:35:00,-6.4,-9.0,30.21,WSW,246,0.0,0.0,88,0.00,,SCT091,0.00,VWS V14.01,2013-01-23 05:35:00,
2013-01-22 23:39:00,-6.3,-8.9,30.21,WSW,246,0.0,0.0,88,0.00,,BKN068,0.00,VWS V14.01,2013-01-23 05:39:00,
2013-01-22 23:40:00,-6.3,-8.9,30.21,WSW,246,0.0,0.0,88,0.00,,SCT091,0.00,VWS V14.01,2013-01-23 05:40:00,
2013-01-22 23:44:00,-6.2,-8.8,30.21,WSW,248,0.0,0.0,88,0.00,,SCT066,0.00,VWS V14.01,2013-01-23 05:44:00,
2013-01-22 23:45:00,-6.2,-8.8,30.21,WSW,248,0.0,0.0,88,0.00,,SCT091,0.00,VWS V14.01,2013-01-23 05:45:00,
2013-01-22 23:49:00,-5.9,-8.5,30.21,WSW,252,0.0,0.0,88,0.00,,SCT066,0.00,VWS V14.01,2013-01-23 05:49:00,
2013-01-22 23:50:00,-5.9,-8.5,30.21,WSW,252,0.0,0.0,88,0.00,,SCT091,0.00,VWS V14.01,2013-01-23 05:50:00,
2013-01-22 23:54:00,-5.6,-8.0,30.21,West,259,0.0,0.0,89,0.00,,SCT066,0.00,VWS V14.01,2013-01-23 05:54:00,
2013-01-22 23:55:00,-5.6,-8.0,30.21,West,259,0.0,0.0,89,0.00,,SCT091,0.00,VWS V14.01,2013-01-23 05:55:00,
2013-01-22 23:59:00,-5.5,-7.9,30.21,WSW,257,0.0,0.0,89,0.00,,SCT066,0.00,VWS V14.01,2013-01-23 05:59:00,